EW7428 / D-AEWF 7700 Squawk Report (11th of October, 2019)

Aircraft A320 Reg No. D-AEWF Age 3 years old
Model A320 Jet engines 2 First flight 26-04-16
Registered 04-05-16 Rollout 04-16 Delivered 04-05-16
Construction No. 7087 Line No. N/A Series 214(SL)
ADSHEX 3C56E6 Airline name Eurowings Owner N/A
Airfield based Dusseldorf~Nordrhein-Westfalen~D First tracked 2017-07-16 18:46:00

Flight history for D-AEWF

Route Flight No Date Playback
Nuremberg (NUE) - Hamburg (HAM) EW7051 2019-11-21 20:54:00
Hamburg (HAM) - Nuremberg (NUE) EW7050 2019-11-21 19:55:00
Stuttgart (STR) - Hamburg (HAM) EW7043 2019-11-21 17:12:00
Hamburg (HAM) - Stuttgart (STR) EW7042 2019-11-21 16:09:00
Stuttgart (STR) - Hamburg (HAM) EW7041 2019-11-21 12:50:00
Hamburg (HAM) - Stuttgart (STR) EW7040 2019-11-21 11:01:00
Schiphol (AMS) - Hamburg (HAM) EW7181 2019-11-21 08:42:00
Hamburg (HAM) - Schiphol (AMS) EW7180 2019-11-21 07:43:00
Schwechat (VIE) - Hamburg (HAM) EW7751 2019-11-21 05:51:00
Hamburg (HAM) - Schwechat (VIE) EW7750 2019-11-20 18:08:00
Dusseldorf (DUS) - Hamburg (HAM) EW7083 2019-11-20 15:01:00
Hamburg (HAM) - Dusseldorf (DUS) EW7082 2019-11-20 14:17:00
Dusseldorf (DUS) - Hamburg (HAM) EW7063 2019-11-20 11:36:00
Hamburg (HAM) - Dusseldorf (DUS) EW7062 2019-11-20 09:55:00
Dusseldorf (DUS) - Hamburg (HAM) EW7061 2019-11-20 08:37:00
Hamburg (HAM) - Dusseldorf (DUS) EW7060 2019-11-20 07:41:00
Stuttgart (STR) - Hamburg (HAM) EW7047 2019-11-19 08:29:00
Hamburg (HAM) - Stuttgart (STR) EW7046 2019-11-19 06:27:00
Malpensa (MXP) - Hamburg (HAM) EW7827 2019-11-17 20:53:00
Hamburg (HAM) - Malpensa (MXP) EW7826 2019-11-17 19:31:00
Time Lat Lon Altitude Heading Speed Vertical Rate
2019-10-11 16:29:20 GMT 43.664276 7.214748 0 312 9 0
2019-10-11 16:29:16 GMT 43.664165 7.214888 0 303 8 0
2019-10-11 16:29:04 GMT 43.664108 7.215367 0 225 14 0
2019-10-11 16:28:55 GMT 43.664715 7.216181 0 225 19 0
2019-10-11 16:28:45 GMT 43.665218 7.216890 0 225 16 0
2019-10-11 16:28:23 GMT 43.666222 7.218246 0 230 12 0
2019-10-11 16:28:16 GMT 43.666431 7.218655 0 270 12 0
2019-10-11 16:28:11 GMT 43.666409 7.219040 0 306 13 0
2019-10-11 16:28:02 GMT 43.666019 7.219630 0 317 12 0
2019-10-11 16:27:51 GMT 43.665665 7.220030 0 315 6 0
2019-10-11 16:27:40 GMT 43.665539 7.220237 0 306 3 0
2019-10-11 16:27:30 GMT 43.665459 7.220381 0 312 6 0
2019-10-11 16:27:20 GMT 43.665207 7.220748 0 315 9 0
2019-10-11 16:27:09 GMT 43.664841 7.221211 0 337 12 0
2019-10-11 16:26:57 GMT 43.664242 7.221173 0 47 24 0
2019-10-11 16:26:46 GMT 43.662834 7.219178 0 45 76 0
2019-10-11 16:26:35 GMT 43.659256 7.214313 -275 45 118 -64
2019-10-11 16:26:24 GMT 43.654907 7.208309 -250 44 137 -128
2019-10-11 16:26:14 GMT 43.650356 7.201996 -125 45 140 -704
2019-10-11 16:26:05 GMT 43.645794 7.195718 0 45 140 -640
2019-10-11 16:25:54 GMT 43.640953 7.189113 100 43 140 -640
2019-10-11 16:25:43 GMT 43.635880 7.182181 225 46 137 -704
2019-10-11 16:25:31 GMT 43.630432 7.174268 350 45 138 -512
2019-10-11 16:25:23 GMT 43.626522 7.169298 425 40 141 -512
2019-10-11 16:25:11 GMT 43.620575 7.162639 550 37 145 -704
2019-10-11 16:25:00 GMT 43.614418 7.156546 700 30 146 -768
2019-10-11 16:24:51 GMT 43.609360 7.152930 800 15 145 -768
2019-10-11 16:24:41 GMT 43.602585 7.150375 950 5 145 -832
2019-10-11 16:24:29 GMT 43.594727 7.150072 1,100 356 150 -896
2019-10-11 16:24:19 GMT 43.587433 7.150822 1,250 356 155 -896
2019-10-11 16:24:08 GMT 43.579643 7.151838 1,400 355 161 -832
2019-10-11 16:23:58 GMT 43.572102 7.152754 1,525 356 166 -704
2019-10-11 16:23:47 GMT 43.563351 7.153734 1,700 356 167 -768
2019-10-11 16:23:37 GMT 43.555389 7.154650 1,850 356 165 -1088
2019-10-11 16:23:26 GMT 43.547199 7.155500 2,050 356 163 -768
2019-10-11 16:23:16 GMT 43.539330 7.156285 2,200 357 164 -832
2019-10-11 16:23:05 GMT 43.531540 7.157018 2,350 356 169 -1024
2019-10-11 16:22:54 GMT 43.523117 7.157784 2,500 356 175 -1024
2019-10-11 16:22:44 GMT 43.515060 7.158615 2,675 356 174 -960
2019-10-11 16:22:34 GMT 43.506500 7.159509 2,800 356 173 -192
2019-10-11 16:22:24 GMT 43.497940 7.160403 2,750 356 181 320
2019-10-11 16:22:13 GMT 43.489193 7.161255 2,750 356 191 -64
2019-10-11 16:22:03 GMT 43.479324 7.162236 2,775 356 191 0
2019-10-11 16:21:52 GMT 43.470657 7.163150 2,775 355 190 0
2019-10-11 16:21:41 GMT 43.461411 7.164874 2,750 344 190 64
2019-10-11 16:21:31 GMT 43.452621 7.169218 2,750 339 192 0
2019-10-11 16:21:21 GMT 43.443851 7.174072 2,750 338 192 0
2019-10-11 16:21:10 GMT 43.435272 7.178799 2,750 338 192 0
2019-10-11 16:20:58 GMT 43.425369 7.184274 2,775 338 191 0
2019-10-11 16:20:49 GMT 43.418015 7.188380 2,775 338 190 0
2019-10-11 16:20:39 GMT 43.409409 7.193171 2,775 338 191 0
2019-10-11 16:20:28 GMT 43.400604 7.198072 2,775 339 190 0
2019-10-11 16:20:17 GMT 43.391693 7.202943 2,750 339 191 0
2019-10-11 16:20:07 GMT 43.383240 7.207358 2,750 339 191 0
2019-10-11 16:19:55 GMT 43.374069 7.212328 2,775 334 190 0
2019-10-11 16:19:45 GMT 43.366333 7.219551 2,775 306 188 -128
2019-10-11 16:19:34 GMT 43.361687 7.230312 2,825 281 193 -384
2019-10-11 16:19:23 GMT 43.361454 7.243849 2,925 257 194 -704
2019-10-11 16:19:13 GMT 43.364666 7.255489 3,075 242 195 -768
2019-10-11 16:19:03 GMT 43.369217 7.267073 3,200 242 199 -768
2019-10-11 16:18:53 GMT 43.373791 7.278835 3,350 242 202 -768
2019-10-11 16:18:41 GMT 43.378773 7.291521 3,500 242 204 -960
2019-10-11 16:18:31 GMT 43.383591 7.303673 3,675 242 207 -896
2019-10-11 16:18:20 GMT 43.388443 7.315873 3,775 242 214 -64
2019-10-11 16:18:11 GMT 43.393158 7.327753 3,800 242 223 -256
2019-10-11 16:18:00 GMT 43.398514 7.341039 3,900 242 229 -960
2019-10-11 16:17:49 GMT 43.404190 7.355150 4,075 242 232 -1024
2019-10-11 16:17:40 GMT 43.408520 7.366071 4,225 242 234 -960
2019-10-11 16:17:30 GMT 43.415688 7.383924 4,450 242 238 -960
2019-10-11 16:17:20 GMT 43.420670 7.396284 4,600 242 239 -960
2019-10-11 16:17:11 GMT 43.423973 7.404393 4,700 241 241 -1024
2019-10-11 16:17:07 GMT 43.426395 7.410475 4,775 241 243 -1024
2019-10-11 16:17:00 GMT 43.429916 7.419093 4,875 241 244 -1024
2019-10-11 16:16:55 GMT 43.433098 7.426758 4,975 241 246 -1024
2019-10-11 16:16:45 GMT 43.438683 7.439968 5,150 240 248 -1280
2019-10-11 16:16:40 GMT 43.441757 7.447161 5,275 240 248 -1408
2019-10-11 16:16:34 GMT 43.445156 7.455008 5,425 240 248 -1472
2019-10-11 16:16:29 GMT 43.447762 7.461155 5,525 240 248 -1472
2019-10-11 16:16:24 GMT 43.450649 7.467826 5,650 240 247 -1472
2019-10-11 16:16:19 GMT 43.453949 7.475558 5,775 240 247 -1408
2019-10-11 16:16:14 GMT 43.456833 7.482392 5,900 240 248 -1408
2019-10-11 16:16:07 GMT 43.460770 7.491398 6,050 239 248 -1408
2019-10-11 16:16:03 GMT 43.463516 7.497275 6,150 235 249 -1408
2019-10-11 16:15:52 GMT 43.472111 7.510267 6,425 215 249 -1600
2019-10-11 16:15:47 GMT 43.476059 7.513882 6,550 208 249 -1664
2019-10-11 16:15:44 GMT 43.482834 7.518034 6,725 200 252 -1472
2019-10-11 16:15:37 GMT 43.487286 7.520076 6,800 199 252 -1408
2019-10-11 16:15:33 GMT 43.492268 7.522365 6,925 199 251 -1472
2019-10-11 16:15:30 GMT 43.494595 7.523411 6,975 199 251 -1472
2019-10-11 16:15:26 GMT 43.499039 7.525443 7,075 199 251 -1536
2019-10-11 16:15:20 GMT 43.506184 7.528643 7,225 198 251 -1472
2019-10-11 16:15:12 GMT 43.515152 7.532597 7,425 198 252 -1216
2019-10-11 16:15:09 GMT 43.517715 7.533747 7,450 198 252 -1152
2019-10-11 16:15:05 GMT 43.522247 7.535727 7,550 199 252 -1152
2019-10-11 16:15:01 GMT 43.526714 7.537733 7,625 199 253 -1152
2019-10-11 16:14:58 GMT 43.530029 7.539240 7,675 199 253 -1152
2019-10-11 16:14:54 GMT 43.534721 7.541395 7,750 199 254 -1152
2019-10-11 16:14:49 GMT 43.541656 7.544534 7,875 199 255 -1152
2019-10-11 16:14:45 GMT 43.545383 7.546234 7,925 199 256 -1024
2019-10-11 16:14:41 GMT 43.550457 7.548523 8,000 199 257 -704
2019-10-11 16:14:38 GMT 43.553146 7.549715 8,025 199 258 -448
2019-10-11 16:14:33 GMT 43.558273 7.552015 8,075 198 260 -384
2019-10-11 16:14:27 GMT 43.565918 7.555400 8,100 198 264 -384
2019-10-11 16:14:23 GMT 43.569763 7.556997 8,125 197 267 -384
2019-10-11 16:14:17 GMT 43.578247 7.560359 8,175 192 272 -640
2019-10-11 16:14:12 GMT 43.583790 7.562125 8,225 191 272 -768
2019-10-11 16:14:08 GMT 43.588490 7.562975 8,300 183 280 -1088
2019-10-11 16:14:01 GMT 43.597569 7.562648 8,425 170 284 -1088
2019-10-11 16:13:56 GMT 43.605698 7.560574 8,525 168 289 -960
2019-10-11 16:13:52 GMT 43.609726 7.559424 8,575 168 290 -960
2019-10-11 16:13:45 GMT 43.618973 7.556741 8,675 168 293 -960
2019-10-11 16:13:41 GMT 43.623497 7.555455 8,750 168 294 -1024
2019-10-11 16:13:37 GMT 43.629089 7.553803 8,800 167 296 -1024
2019-10-11 16:13:34 GMT 43.633942 7.552334 8,875 167 297 -1024
2019-10-11 16:13:31 GMT 43.637695 7.551270 8,925 167 298 -1088
2019-10-11 16:13:27 GMT 43.643372 7.549524 9,000 167 301 -1088
2019-10-11 16:13:20 GMT 43.652222 7.546888 9,100 167 302 -960
2019-10-11 16:13:13 GMT 43.661911 7.543839 9,225 166 302 -896
2019-10-11 16:13:10 GMT 43.665848 7.542498 9,275 166 301 -896
2019-10-11 16:13:05 GMT 43.672935 7.540087 9,350 164 302 -832
2019-10-11 16:13:00 GMT 43.680130 7.537324 9,725 155 304 -1152
2019-10-11 16:12:52 GMT 43.689739 7.532043 9,550 150 307 -1152
2019-10-11 16:12:48 GMT 43.695095 7.527793 9,725 142 312 -1088
2019-10-11 16:12:42 GMT 43.702541 7.520142 9,750 141 315 -960
2019-10-11 16:12:37 GMT 43.708920 7.513079 9,900 140 317 -960
2019-10-11 16:12:31 GMT 43.714828 7.506536 9,925 141 315 -960
2019-10-11 16:12:28 GMT 43.717999 7.503008 10,000 141 314 -960
2019-10-11 16:12:20 GMT 43.728058 7.491782 10,100 141 315 -960
2019-10-11 16:12:16 GMT 43.731686 7.487771 10,175 141 314 -960
2019-10-11 16:12:10 GMT 43.738815 7.479837 10,275 141 313 -960
2019-10-11 16:12:06 GMT 43.742294 7.475941 10,300 140 314 -960
2019-10-11 16:12:02 GMT 43.747513 7.470115 10,550 140 314 -960
2019-10-11 16:11:59 GMT 43.751003 7.466191 10,425 140 314 -960
2019-10-11 16:11:56 GMT 43.754494 7.462267 10,475 140 315 -960
2019-10-11 16:11:49 GMT 43.762733 7.452916 10,600 140 316 -960
2019-10-11 16:11:45 GMT 43.766228 7.448927 10,650 140 316 -960
2019-10-11 16:11:40 GMT 43.772003 7.442343 10,725 140 316 -960
2019-10-11 16:11:35 GMT 43.778095 7.435390 10,800 140 318 -896
2019-10-11 16:11:31 GMT 43.783127 7.429766 10,850 141 319 -768
2019-10-11 16:11:24 GMT 43.789856 7.422478 10,925 145 320 -640
2019-10-11 16:11:20 GMT 43.795441 7.417241 10,975 151 319 -512
2019-10-11 16:11:16 GMT 43.800629 7.413483 11,000 159 315 -128
2019-10-11 16:11:13 GMT 43.804504 7.411300 11,000 160 315 0
2019-10-11 16:11:09 GMT 43.809402 7.409192 11,000 168 311 0
2019-10-11 16:11:03 GMT 43.818512 7.407276 11,000 180 305 0
2019-10-11 16:11:00 GMT 43.823856 7.407205 11,000 185 303 0
2019-10-11 16:10:51 GMT 43.835266 7.409767 11,000 196 297 0
2019-10-11 16:10:48 GMT 43.838242 7.411173 11,000 203 293 64
2019-10-11 16:10:45 GMT 43.843967 7.414594 11,000 209 291 64
2019-10-11 16:10:42 GMT 43.845749 7.415835 11,000 211 289 64
2019-10-11 16:10:38 GMT 43.851059 7.420434 11,000 219 287 0
2019-10-11 16:10:31 GMT 43.857841 7.428393 11,000 226 284 -64
2019-10-11 16:10:27 GMT 43.861378 7.433493 11,000 231 283 0
2019-10-11 16:10:21 GMT 43.865986 7.441864 11,000 235 283 0
2019-10-11 16:10:15 GMT 43.870743 7.451222 11,000 235 285 -64
2019-10-11 16:10:10 GMT 43.874634 7.458886 11,025 235 288 -64
2019-10-11 16:10:03 GMT 43.882599 7.474536 11,025 235 294 -384
2019-10-11 16:10:00 GMT 43.882599 7.474536 11,050 236 298 -896
2019-10-11 16:09:52 GMT 43.889511 7.488205 11,175 236 300 -1024
2019-10-11 16:09:48 GMT 43.891872 7.492937 11,200 235 301 -1024
2019-10-11 16:09:39 GMT 43.899033 7.507111 11,375 236 305 -1088
2019-10-11 16:09:36 GMT 43.901321 7.511575 11,425 236 307 -1152
2019-10-11 16:09:28 GMT 43.907467 7.523869 11,600 235 310 -1280
2019-10-11 16:09:23 GMT 43.912354 7.533491 11,725 235 311 -1728
2019-10-11 16:09:18 GMT 43.915878 7.540517 11,850 235 311 -1728
2019-10-11 16:09:07 GMT 43.924759 7.557955 12,150 235 312 -1728
2019-10-11 16:09:01 GMT 43.930069 7.568430 12,350 235 312 -1728
2019-10-11 16:08:56 GMT 43.934559 7.577231 12,500 235 312 -1664
2019-10-11 16:08:45 GMT 43.943390 7.594619 12,800 235 313 -1664
2019-10-11 16:08:36 GMT 43.951084 7.609732 13,050 235 314 -1728
2019-10-11 16:08:25 GMT 43.960163 7.627716 13,375 235 315 -1664
2019-10-11 16:08:15 GMT 43.968887 7.644888 13,650 235 315 -1728
2019-10-11 16:08:05 GMT 43.977715 7.662179 13,950 235 315 -1792
2019-10-11 16:07:54 GMT 43.986557 7.679705 14,250 235 314 -1664
2019-10-11 16:07:43 GMT 43.995575 7.697328 14,525 235 315 -1472
2019-10-11 16:07:33 GMT 44.004154 7.714168 14,750 235 315 -1280
2019-10-11 16:07:29 GMT 44.007133 7.719988 14,825 235 315 -1152
2019-10-11 16:07:22 GMT 44.013336 7.731884 14,925 234 314 -640
2019-10-11 16:07:17 GMT 44.017330 7.739345 14,975 214 317 -128
2019-10-11 16:07:12 GMT 44.022774 7.748304 15,000 225 316 0
2019-10-11 16:07:00 GMT 44.035263 7.762416 15,000 213 317 -128
2019-10-11 16:06:50 GMT 44.048843 7.773808 15,000 211 318 0
2019-10-11 16:06:40 GMT 44.062363 7.784899 15,000 211 324 64
2019-10-11 16:06:29 GMT 44.075455 7.795758 15,000 211 332 -64
2019-10-11 16:06:19 GMT 44.090370 7.808075 15,050 211 341 -576
2019-10-11 16:06:09 GMT 44.101959 7.817731 15,175 212 345 -1280
2019-10-11 16:06:05 GMT 44.107128 7.822069 15,250 212 346 -1280
2019-10-11 16:05:58 GMT 44.122879 7.835168 15,550 212 349 -1856
2019-10-11 16:05:47 GMT 44.132687 7.843388 15,775 211 349 -1856
2019-10-11 16:05:36 GMT 44.149246 7.857077 16,175 211 351 -1984
2019-10-11 16:05:27 GMT 44.159821 7.865892 17,100 211 351 -1984
2019-10-11 16:05:23 GMT 44.165691 7.870723 16,575 211 352 -1984
2019-10-11 16:05:18 GMT 44.172729 7.876495 17,100 211 353 -1984
2019-10-11 16:05:15 GMT 44.177467 7.880467 16,850 211 352 -1984
2019-10-11 16:05:12 GMT 44.182076 7.884325 16,950 211 352 -1984
2019-10-11 16:05:07 GMT 44.188408 7.889557 17,100 211 353 -1984
2019-10-11 16:05:04 GMT 44.193295 7.893611 17,225 211 353 -1984
2019-10-11 16:05:01 GMT 44.196945 7.896685 17,300 211 354 -1920
2019-10-11 16:04:55 GMT 44.205399 7.903725 17,500 212 354 -1920
2019-10-11 16:04:52 GMT 44.210724 7.908194 17,625 211 355 -1984
2019-10-11 16:04:47 GMT 44.217365 7.913707 17,775 211 355 -1984
2019-10-11 16:04:40 GMT 44.226425 7.921273 17,975 212 357 -1984
2019-10-11 16:04:36 GMT 44.232773 7.926569 18,125 211 357 -1984
2019-10-11 16:04:29 GMT 44.244457 7.936349 18,400 211 360 -1984
2019-10-11 16:04:25 GMT 44.256317 7.946254 19,125 211 364 -1920
2019-10-11 16:04:20 GMT 44.256317 7.946254 18,675 211 362 -1920
2019-10-11 16:04:15 GMT 44.262039 7.951028 18,800 211 362 -1920
2019-10-11 16:04:11 GMT 44.267361 7.955441 18,925 211 363 -1920
2019-10-11 16:04:08 GMT 44.273972 7.961002 19,250 211 364 -1920
2019-10-11 16:04:04 GMT 44.277878 7.964238 19,150 211 365 -1920
2019-10-11 16:04:01 GMT 44.282089 7.967704 19,250 211 365 -1920
2019-10-11 16:03:55 GMT 44.295593 7.979017 19,525 211 367 -1856
2019-10-11 16:03:52 GMT 44.299667 7.982418 19,625 211 368 -1856
2019-10-11 16:03:43 GMT 44.309353 7.990410 19,825 211 370 -1856
2019-10-11 16:03:40 GMT 44.312714 7.993273 19,900 211 371 -1856
2019-10-11 16:03:37 GMT 44.319031 7.998570 20,025 211 374 -1920
2019-10-11 16:03:33 GMT 44.324341 8.003004 20,150 211 374 -1920
2019-10-11 16:03:30 GMT 44.328625 8.006555 20,250 211 374 -1920
2019-10-11 16:03:22 GMT 44.339767 8.015834 20,400 211 375 -1984
2019-10-11 16:03:18 GMT 44.344826 8.020087 20,600 211 376 -1984
2019-10-11 16:03:12 GMT 44.357986 8.031071 20,875 212 378 -1984
2019-10-11 16:03:08 GMT 44.360840 8.033484 20,925 212 378 -1984
2019-10-11 16:03:03 GMT 44.368469 8.039900 21,100 212 379 -1920
2019-10-11 16:02:58 GMT 44.376015 8.046213 21,275 212 380 -1984
2019-10-11 16:02:55 GMT 44.379646 8.049227 21,350 212 381 -1984
2019-10-11 16:02:52 GMT 44.384624 8.053447 21,425 211 382 -1920
2019-10-11 16:02:47 GMT 44.392353 8.059945 21,625 212 383 -1920
2019-10-11 16:02:44 GMT 44.397354 8.064096 21,725 212 383 -1920
2019-10-11 16:02:41 GMT 44.400375 8.066711 21,800 211 384 -1920
2019-10-11 16:02:37 GMT 44.407112 8.072339 21,925 212 385 -1920
2019-10-11 16:02:32 GMT 44.415955 8.079774 22,125 212 386 -1856
2019-10-11 16:02:26 GMT 44.423450 8.086071 22,275 212 386 -1920
2019-10-11 16:02:22 GMT 44.434204 8.095048 22,500 211 387 -1984
2019-10-11 16:02:15 GMT 44.441711 8.101371 22,675 212 387 -1920
2019-10-11 16:02:11 GMT 44.447845 8.106503 22,800 212 387 -1920
2019-10-11 16:02:08 GMT 44.452454 8.110389 23,000 211 388 -1984
2019-10-11 16:02:04 GMT 44.458595 8.115547 23,025 211 388 -1984
2019-10-11 16:01:59 GMT 44.466293 8.122035 23,350 212 391 -1984
2019-10-11 16:01:55 GMT 44.471695 8.126548 23,350 212 390 -1984
2019-10-11 16:01:52 GMT 44.477737 8.131648 23,450 212 391 -1984
2019-10-11 16:01:48 GMT 44.484695 8.137469 23,650 212 391 -1984
2019-10-11 16:01:44 GMT 44.489323 8.141405 24,200 212 393 -1920
2019-10-11 16:01:39 GMT 44.497238 8.148063 23,850 212 392 -1984
2019-10-11 16:01:36 GMT 44.501633 8.151725 24,000 212 393 -1920
2019-10-11 16:01:33 GMT 44.506268 8.155674 24,050 212 393 -1920
2019-10-11 16:01:29 GMT 44.512207 8.160618 24,375 212 395 -1856
2019-10-11 16:01:26 GMT 44.518791 8.166191 24,300 212 394 -1920
2019-10-11 16:01:23 GMT 44.522049 8.168938 24,325 212 395 -1920
2019-10-11 16:01:19 GMT 44.528473 8.174297 24,500 212 395 -1856
2019-10-11 16:01:12 GMT 44.539307 8.183441 24,775 212 405 -1920
2019-10-11 16:01:08 GMT 44.545605 8.188700 24,825 211 398 -1856
2019-10-11 16:01:04 GMT 44.551422 8.193590 24,950 211 400 -1920
2019-10-11 16:01:01 GMT 44.556793 8.198090 25,075 211 400 -1920
2019-10-11 16:00:58 GMT 44.561569 8.202098 25,350 212 402 -1984
2019-10-11 16:00:55 GMT 44.566360 8.206068 25,250 211 401 -1920
2019-10-11 16:00:50 GMT 44.574280 8.212738 25,425 212 402 -1984
2019-10-11 16:00:47 GMT 44.578949 8.216662 25,500 212 402 -1984
2019-10-11 16:00:44 GMT 44.583389 8.220455 25,875 212 405 -1920
2019-10-11 16:00:40 GMT 44.589615 8.225686 25,875 212 405 -1920
2019-10-11 16:00:37 GMT 44.595879 8.230970 25,850 212 405 -1920
2019-10-11 16:00:33 GMT 44.600536 8.234923 25,925 212 406 -1920
2019-10-11 16:00:28 GMT 44.608566 8.241708 26,125 212 407 -1792
2019-10-11 16:00:25 GMT 44.613384 8.245775 26,175 212 407 -1664
2019-10-11 16:00:22 GMT 44.617905 8.249621 26,250 212 407 -1600
2019-10-11 16:00:18 GMT 44.627304 8.257565 26,400 212 410 -1472
2019-10-11 16:00:14 GMT 44.635574 8.264531 26,550 212 413 -1472
2019-10-11 16:00:08 GMT 44.642212 8.270155 26,650 212 413 -1472
2019-10-11 16:00:02 GMT 44.657234 8.282888 27,150 212 413 -1472
2019-10-11 15:59:59 GMT 44.657234 8.282888 26,850 212 413 -1472
2019-10-11 15:59:56 GMT 44.660542 8.285634 26,900 212 414 -1472
2019-10-11 15:59:53 GMT 44.666409 8.290658 26,975 212 414 -1472
2019-10-11 15:59:46 GMT 44.676910 8.299517 27,150 212 415 -1536
2019-10-11 15:59:42 GMT 44.685471 8.306776 27,450 211 417 -1536
2019-10-11 15:59:37 GMT 44.694523 8.314440 27,450 212 416 -1536
2019-10-11 15:59:33 GMT 44.699829 8.318861 27,500 211 417 -1536
2019-10-11 15:59:25 GMT 44.717880 8.334045 27,900 212 418 -1472
2019-10-11 15:59:21 GMT 44.717880 8.334045 27,775 212 418 -1472
2019-10-11 15:59:16 GMT 44.729019 8.343446 28,075 211 419 -1408
2019-10-11 15:59:09 GMT 44.738655 8.351619 28,025 212 420 -1472
2019-10-11 15:59:05 GMT 44.745453 8.357380 28,175 211 419 -1408
2019-10-11 15:59:00 GMT 44.754482 8.364950 28,300 211 420 -1408
2019-10-11 15:58:55 GMT 44.764297 8.373217 28,425 211 421 -1408
2019-10-11 15:58:51 GMT 44.769196 8.377206 28,450 210 421 -1472
2019-10-11 15:58:48 GMT 44.773430 8.380559 28,700 206 424 -1472
2019-10-11 15:58:44 GMT 44.780731 8.385838 28,675 205 424 -1472
2019-10-11 15:58:39 GMT 44.790024 8.391854 28,800 202 425 -1472
2019-10-11 15:58:34 GMT 44.799362 8.397021 28,925 199 428 -1472
2019-10-11 15:58:29 GMT 44.809891 8.401925 29,075 197 430 -1472
2019-10-11 15:58:23 GMT 44.819099 8.405546 29,175 193 432 -1536
2019-10-11 15:58:20 GMT 44.825523 8.407623 29,275 192 433 -1600
2019-10-11 15:58:17 GMT 44.830410 8.409096 29,325 190 435 -1600
2019-10-11 15:58:13 GMT 44.839737 8.411342 29,400 190 435 -1600
2019-10-11 15:58:10 GMT 44.845734 8.412585 29,700 188 438 -1472
2019-10-11 15:58:05 GMT 44.856537 8.414677 29,625 188 438 -1536
2019-10-11 15:58:02 GMT 44.861366 8.415594 29,700 188 438 -1408
2019-10-11 15:57:59 GMT 44.866562 8.416639 29,750 188 438 -1408
2019-10-11 15:57:56 GMT 44.874588 8.418207 29,900 188 439 -1408
2019-10-11 15:57:52 GMT 44.881618 8.419547 29,950 188 439 -1472
2019-10-11 15:57:49 GMT 44.886841 8.420563 30,025 188 439 -1472
2019-10-11 15:57:45 GMT 44.896515 8.422494 30,300 188 440 -1536
2019-10-11 15:57:41 GMT 44.902954 8.423767 30,250 188 441 -1536
2019-10-11 15:57:37 GMT 44.918533 8.426782 30,400 188 441 -1600
2019-10-11 15:57:33 GMT 44.918533 8.426782 30,600 188 442 -1536
2019-10-11 15:57:29 GMT 44.927628 8.428606 30,600 188 442 -1536
2019-10-11 15:57:24 GMT 44.940739 8.431136 30,725 188 442 -1536
2019-10-11 15:57:21 GMT 44.945801 8.432138 30,775 188 441 -1472
2019-10-11 15:57:18 GMT 44.949863 8.432945 31,200 188 441 -1408
2019-10-11 15:57:15 GMT 44.957153 8.434426 30,950 188 441 -1344
2019-10-11 15:57:11 GMT 44.964203 8.435800 30,950 188 441 -1344
2019-10-11 15:57:08 GMT 44.970474 8.437042 31,050 188 441 -1280
2019-10-11 15:57:04 GMT 44.978302 8.438546 31,175 188 440 -1280
2019-10-11 15:57:00 GMT 44.985195 8.439912 31,225 188 440 -1280
2019-10-11 15:56:57 GMT 44.991852 8.441251 31,300 188 440 -1472
2019-10-11 15:56:53 GMT 45.000698 8.442993 31,425 189 441 -1472
2019-10-11 15:56:49 GMT 45.010612 8.444936 31,525 189 441 -1472
2019-10-11 15:56:46 GMT 45.013641 8.445539 31,675 189 441 -1472
2019-10-11 15:56:43 GMT 45.020691 8.446982 31,650 188 442 -1536
2019-10-11 15:56:40 GMT 45.026768 8.448151 31,750 189 442 -1536
2019-10-11 15:56:35 GMT 45.035889 8.449990 31,850 188 442 -1536
2019-10-11 15:56:32 GMT 45.042160 8.451233 31,925 188 442 -1536
2019-10-11 15:56:28 GMT 45.052872 8.453326 32,125 188 443 -1536
2019-10-11 15:56:25 GMT 45.057129 8.454176 32,225 188 443 -1536
2019-10-11 15:56:20 GMT 45.068478 8.456391 32,250 188 443 -1472
2019-10-11 15:56:14 GMT 45.078827 8.458426 32,375 188 443 -1472
2019-10-11 15:56:11 GMT 45.085144 8.459669 32,450 188 443 -1472
2019-10-11 15:56:07 GMT 45.093842 8.461435 32,575 188 444 -1472
2019-10-11 15:56:04 GMT 45.098923 8.462415 32,625 188 444 -1472
2019-10-11 15:56:01 GMT 45.106651 8.463894 32,700 188 444 -1472
2019-10-11 15:55:57 GMT 45.114395 8.465424 32,800 188 444 -1472
2019-10-11 15:55:53 GMT 45.121490 8.466862 32,925 188 444 -1472
2019-10-11 15:55:50 GMT 45.128437 8.468181 33,150 189 444 -1472
2019-10-11 15:55:47 GMT 45.135559 8.469588 33,075 188 444 -1408
2019-10-11 15:55:43 GMT 45.142868 8.471048 33,175 189 443 -1472
2019-10-11 15:55:40 GMT 45.157673 8.473942 33,300 189 443 -1472
2019-10-11 15:55:36 GMT 45.157673 8.473942 33,325 189 442 -1472
2019-10-11 15:55:33 GMT 45.162746 8.474947 33,800 188 439 -1472
2019-10-11 15:55:29 GMT 45.170013 8.476410 33,500 188 441 -1472
2019-10-11 15:55:25 GMT 45.179535 8.478306 33,600 188 440 -1472
2019-10-11 15:55:21 GMT 45.189377 8.480239 33,925 189 434 -1408
2019-10-11 15:55:18 GMT 45.199245 8.482249 33,975 189 437 -1408
2019-10-11 15:55:15 GMT 45.199245 8.482249 33,850 189 436 -1408
2019-10-11 15:55:10 GMT 45.210617 8.484519 33,975 189 435 -1408
2019-10-11 15:55:07 GMT 45.215027 8.485398 34,100 189 434 -1408
2019-10-11 15:55:04 GMT 45.221169 8.486604 34,100 189 434 -1408
2019-10-11 15:55:01 GMT 45.234669 8.489350 34,250 189 433 -1408
2019-10-11 15:54:58 GMT 45.234669 8.489350 34,300 189 433 -1408
2019-10-11 15:54:54 GMT 45.241425 8.490666 34,325 189 432 -1472
2019-10-11 15:54:50 GMT 45.248123 8.492030 34,450 189 432 -1472
2019-10-11 15:54:47 GMT 45.254883 8.493413 34,500 189 432 -1472
2019-10-11 15:54:44 GMT 45.261017 8.494655 34,900 188 433 -1472
2019-10-11 15:54:40 GMT 45.275848 8.497598 34,975 189 434 -192
2019-10-11 15:54:37 GMT 45.275848 8.497598 34,750 188 433 -1408
2019-10-11 15:54:34 GMT 45.280838 8.498579 34,800 188 434 -1344
2019-10-11 15:54:30 GMT 45.288940 8.500148 34,875 188 434 -960
2019-10-11 15:54:26 GMT 45.296490 8.501676 34,950 188 434 -576
2019-10-11 15:54:23 GMT 45.302265 8.502815 34,950 189 434 -192
2019-10-11 15:54:20 GMT 45.309814 8.504333 34,975 189 434 0
2019-10-11 15:54:14 GMT 45.330055 8.508375 34,975 189 434 -64
2019-10-11 15:54:09 GMT 45.330055 8.508375 34,975 189 434 -64
2019-10-11 15:54:06 GMT 45.341972 8.510720 35,000 189 434 -64
2019-10-11 15:54:03 GMT 45.351288 8.512639 35,000 189 434 -64
2019-10-11 15:53:58 GMT 45.351288 8.512639 35,000 189 434 -64
2019-10-11 15:53:55 GMT 45.359070 8.514143 35,000 189 434 -64
2019-10-11 15:53:52 GMT 45.364792 8.515320 35,000 189 434 -64
2019-10-11 15:53:48 GMT 45.371952 8.516749 35,000 189 434 -64
2019-10-11 15:53:44 GMT 45.379898 8.518328 35,000 188 434 -64
2019-10-11 15:53:41 GMT 45.386246 8.519630 35,000 188 434 -64
2019-10-11 15:53:37 GMT 45.401550 8.522644 35,025 188 434 0
2019-10-11 15:53:33 GMT 45.401550 8.522644 35,000 188 434 0
2019-10-11 15:53:30 GMT 45.408730 8.524051 35,025 188 434 0
2019-10-11 15:53:26 GMT 45.414501 8.525257 35,025 188 435 0
2019-10-11 15:53:23 GMT 45.421436 8.526596 35,025 188 435 0
2019-10-11 15:53:19 GMT 45.429817 8.528271 35,025 189 435 0
2019-10-11 15:53:16 GMT 45.435791 8.529445 35,025 189 436 0
2019-10-11 15:53:13 GMT 45.442383 8.530753 35,025 189 435 0
2019-10-11 15:53:10 GMT 45.446732 8.531669 35,025 189 437 0
2019-10-11 15:53:07 GMT 45.452347 8.532760 35,025 189 436 0
2019-10-11 15:53:03 GMT 45.460327 8.534350 35,025 189 436 0
2019-10-11 15:53:00 GMT 45.467709 8.535841 35,025 189 436 0
2019-10-11 15:52:55 GMT 45.477066 8.537784 35,025 189 437 0
2019-10-11 15:52:52 GMT 45.483856 8.539124 35,025 189 437 0
2019-10-11 15:52:49 GMT 45.489079 8.540195 35,025 189 437 0
2019-10-11 15:52:46 GMT 45.496479 8.541669 35,025 189 437 0
2019-10-11 15:52:43 GMT 45.501297 8.542655 35,025 189 438 0
2019-10-11 15:52:39 GMT 45.509079 8.544224 35,025 189 438 0
2019-10-11 15:52:34 GMT 45.520294 8.546448 35,025 189 438 0
2019-10-11 15:52:31 GMT 45.527298 8.547832 35,025 189 438 0
2019-10-11 15:52:28 GMT 45.530502 8.548475 35,025 189 438 0
2019-10-11 15:52:25 GMT 45.536316 8.549652 35,025 189 438 0
2019-10-11 15:52:22 GMT 45.542336 8.550847 35,025 189 438 0
2019-10-11 15:52:19 GMT 45.548153 8.552032 35,025 189 438 0
2019-10-11 15:52:16 GMT 45.555405 8.553526 35,025 189 438 0
2019-10-11 15:52:13 GMT 45.561420 8.554710 35,025 189 438 0
2019-10-11 15:52:10 GMT 45.569412 8.556340 35,025 189 438 0
2019-10-11 15:52:06 GMT 45.576050 8.557680 35,025 188 439 0
2019-10-11 15:52:02 GMT 45.582687 8.559020 35,025 188 439 0
2019-10-11 15:51:59 GMT 45.588501 8.560158 35,025 189 439 0
2019-10-11 15:51:56 GMT 45.594936 8.561440 35,025 188 439 0
2019-10-11 15:51:52 GMT 45.603790 8.563240 35,025 188 439 0
2019-10-11 15:51:49 GMT 45.609787 8.564461 35,025 188 439 0
2019-10-11 15:51:45 GMT 45.624481 8.567393 35,025 189 439 -64
2019-10-11 15:51:42 GMT 45.624481 8.567393 35,025 189 439 0
2019-10-11 15:51:39 GMT 45.630707 8.568666 35,025 189 439 -64
2019-10-11 15:51:35 GMT 45.638512 8.570229 35,000 189 438 0
2019-10-11 15:51:32 GMT 45.642563 8.571053 35,025 189 439 -64
2019-10-11 15:51:28 GMT 45.652988 8.573181 35,025 188 439 0
2019-10-11 15:51:24 GMT 45.661598 8.574898 35,025 189 438 0
2019-10-11 15:51:21 GMT 45.667648 8.576102 35,025 189 438 0
2019-10-11 15:51:17 GMT 45.674076 8.577438 35,025 189 438 0
2019-10-11 15:51:13 GMT 45.683670 8.579317 35,025 188 439 0
2019-10-11 15:51:10 GMT 45.688507 8.580322 35,025 188 439 0
2019-10-11 15:51:06 GMT 45.695118 8.581627 35,025 189 438 64
2019-10-11 15:51:03 GMT 45.701157 8.582868 35,025 188 439 0
2019-10-11 15:51:00 GMT 45.710587 8.584744 35,000 189 438 64
2019-10-11 15:50:55 GMT 45.718414 8.586351 35,025 189 438 64
2019-10-11 15:50:52 GMT 45.724445 8.587532 35,025 189 438 64
2019-10-11 15:50:49 GMT 45.730637 8.588837 35,000 189 438 64
2019-10-11 15:50:46 GMT 45.738087 8.590279 35,000 189 438 64
2019-10-11 15:50:43 GMT 45.742275 8.591171 35,000 189 438 64
2019-10-11 15:50:39 GMT 45.751308 8.592957 35,000 189 438 64
2019-10-11 15:50:36 GMT 45.756149 8.593987 35,000 189 438 64
2019-10-11 15:50:32 GMT 45.765976 8.595931 35,000 189 438 0
2019-10-11 15:50:28 GMT 45.772156 8.597204 35,000 189 438 0
2019-10-11 15:50:23 GMT 45.781174 8.599012 35,000 189 437 0
2019-10-11 15:50:20 GMT 45.787399 8.600285 35,000 189 437 0
2019-10-11 15:50:17 GMT 45.801590 8.603166 35,000 189 437 0
2019-10-11 15:50:13 GMT 45.801590 8.603166 35,000 189 436 0
2019-10-11 15:50:10 GMT 45.810196 8.604908 35,000 189 436 0
2019-10-11 15:50:06 GMT 45.815186 8.605979 35,000 189 436 0
2019-10-11 15:50:01 GMT 45.825760 8.608123 35,000 189 436 0
2019-10-11 15:49:58 GMT 45.837112 8.610468 35,000 189 435 0
2019-10-11 15:49:55 GMT 45.844505 8.611977 35,000 189 436 0
2019-10-11 15:49:52 GMT 45.851852 8.613415 35,000 189 435 0
2019-10-11 15:49:49 GMT 45.851852 8.613415 35,000 189 435 0
2019-10-11 15:49:46 GMT 45.858032 8.614688 35,000 189 435 0
2019-10-11 15:49:43 GMT 45.864010 8.615891 35,000 189 435 0
2019-10-11 15:49:40 GMT 45.869411 8.616989 35,000 189 435 0
2019-10-11 15:49:37 GMT 45.874390 8.618019 35,000 189 435 0
2019-10-11 15:49:34 GMT 45.880955 8.619324 35,000 189 435 0
2019-10-11 15:49:30 GMT 45.888519 8.620851 35,000 189 435 0
2019-10-11 15:49:27 GMT 45.893711 8.621933 35,000 189 433 -64
2019-10-11 15:49:24 GMT 45.907425 8.624737 35,000 189 435 0
2019-10-11 15:49:21 GMT 45.907425 8.624737 35,000 189 435 0
2019-10-11 15:49:17 GMT 45.915218 8.626259 35,000 189 435 0
2019-10-11 15:49:13 GMT 45.922394 8.627751 35,000 189 435 0
2019-10-11 15:49:10 GMT 45.928345 8.628937 35,000 189 435 -64
2019-10-11 15:49:06 GMT 45.938095 8.630967 35,000 189 435 -64
2019-10-11 15:49:01 GMT 45.944870 8.632306 35,000 189 434 0
2019-10-11 15:48:58 GMT 45.950829 8.633537 35,000 189 434 0
2019-10-11 15:48:55 GMT 45.958557 8.635048 35,000 188 434 0
2019-10-11 15:48:52 GMT 45.963364 8.636058 35,000 188 434 -64
2019-10-11 15:48:49 GMT 45.970276 8.637465 35,000 188 434 0
2019-10-11 15:48:46 GMT 45.976868 8.638737 35,000 188 434 0
2019-10-11 15:48:43 GMT 45.982018 8.639786 35,000 188 434 0
2019-10-11 15:48:40 GMT 45.988953 8.641149 35,000 188 434 -64
2019-10-11 15:48:37 GMT 45.993752 8.642120 35,000 188 434 -64
2019-10-11 15:48:33 GMT 46.002686 8.643896 35,000 189 434 -64
2019-10-11 15:48:29 GMT 46.009232 8.645235 35,000 189 433 -64
2019-10-11 15:48:26 GMT 46.017166 8.646858 35,025 189 433 -64
2019-10-11 15:48:21 GMT 46.026478 8.648781 35,025 189 433 -64
2019-10-11 15:48:18 GMT 46.032028 8.649925 35,025 189 433 -64
2019-10-11 15:48:15 GMT 46.035973 8.650703 35,025 188 433 0
2019-10-11 15:48:12 GMT 46.043327 8.652214 35,025 188 432 0
2019-10-11 15:48:09 GMT 46.047867 8.653140 35,025 188 433 0
2019-10-11 15:48:06 GMT 46.054459 8.654279 35,025 187 434 0
2019-10-11 15:48:03 GMT 46.063202 8.655686 35,025 186 434 0
2019-10-11 15:48:00 GMT 46.067814 8.656334 35,025 186 434 0
2019-10-11 15:47:57 GMT 46.072998 8.657026 35,025 185 435 0
2019-10-11 15:47:54 GMT 46.078583 8.657629 35,025 184 434 0
2019-10-11 15:47:50 GMT 46.087646 8.658463 35,025 183 435 0
2019-10-11 15:47:47 GMT 46.098679 8.659149 35,025 182 436 64
2019-10-11 15:47:44 GMT 46.098679 8.659149 35,025 182 436 64
2019-10-11 15:47:40 GMT 46.108360 8.659492 35,025 181 436 64
2019-10-11 15:47:37 GMT 46.120464 8.659630 35,025 179 437 0
2019-10-11 15:47:34 GMT 46.120464 8.659630 35,025 178 437 0
2019-10-11 15:47:31 GMT 46.124268 8.659571 35,025 177 438 0
2019-10-11 15:47:28 GMT 46.130337 8.659424 35,025 177 438 0
2019-10-11 15:47:25 GMT 46.137634 8.659035 35,050 174 437 0
2019-10-11 15:47:19 GMT 46.149124 8.658231 35,025 175 439 -64
2019-10-11 15:47:16 GMT 46.155396 8.657562 35,025 175 439 -64
2019-10-11 15:47:13 GMT 46.161060 8.656952 35,025 175 439 -64
2019-10-11 15:47:10 GMT 46.167160 8.656155 35,025 174 439 -64
2019-10-11 15:47:07 GMT 46.174210 8.655217 35,025 174 439 0
2019-10-11 15:47:03 GMT 46.183079 8.653931 35,025 174 439 0
2019-10-11 15:46:56 GMT 46.198627 8.651802 35,025 174 438 64
2019-10-11 15:46:53 GMT 46.202454 8.651264 35,025 174 439 0
2019-10-11 15:46:47 GMT 46.214363 8.649605 35,025 174 439 0
2019-10-11 15:46:44 GMT 46.225021 8.648094 35,000 174 439 0
2019-10-11 15:46:37 GMT 46.233913 8.646858 35,025 174 439 0
2019-10-11 15:46:34 GMT 46.240768 8.645838 35,025 174 438 0
2019-10-11 15:46:31 GMT 46.245411 8.645210 35,025 174 438 -64
2019-10-11 15:46:27 GMT 46.254868 8.643896 35,025 174 438 -64
2019-10-11 15:46:24 GMT 46.260727 8.643092 35,025 174 438 -64
2019-10-11 15:46:21 GMT 46.266357 8.642288 35,050 174 437 0
2019-10-11 15:46:17 GMT 46.274185 8.641149 35,050 174 437 0
2019-10-11 15:46:13 GMT 46.289867 8.638962 35,025 174 437 0
2019-10-11 15:46:10 GMT 46.289867 8.638962 35,050 174 437 0
2019-10-11 15:46:03 GMT 46.303139 8.637108 35,025 174 437 0
2019-10-11 15:46:00 GMT 46.309002 8.636284 35,025 174 437 0
2019-10-11 15:45:57 GMT 46.320827 8.634567 35,025 174 437 0
2019-10-11 15:45:54 GMT 46.320827 8.634567 35,025 174 437 0
2019-10-11 15:45:51 GMT 46.329071 8.633378 35,025 174 437 0
2019-10-11 15:45:48 GMT 46.334095 8.632713 35,025 174 437 0
2019-10-11 15:45:43 GMT 46.344772 8.631168 35,025 174 437 64
2019-10-11 15:45:40 GMT 46.351597 8.630241 34,975 174 435 0
2019-10-11 15:45:37 GMT 46.353645 8.629967 35,000 174 437 0
2019-10-11 15:45:34 GMT 46.361465 8.628799 35,025 174 437 64
2019-10-11 15:45:31 GMT 46.366493 8.628113 35,000 174 437 64
2019-10-11 15:45:28 GMT 46.371735 8.627349 35,000 174 437 64
2019-10-11 15:45:25 GMT 46.378971 8.626328 35,000 174 437 64
2019-10-11 15:45:22 GMT 46.386791 8.625229 35,000 174 437 64
2019-10-11 15:45:19 GMT 46.391212 8.624611 35,000 174 437 64
2019-10-11 15:45:16 GMT 46.397404 8.623718 35,000 174 437 0
2019-10-11 15:45:13 GMT 46.404236 8.622794 35,000 174 436 0
2019-10-11 15:45:09 GMT 46.412674 8.621590 35,000 174 436 64
2019-10-11 15:45:05 GMT 46.418076 8.620766 35,000 174 436 64
2019-10-11 15:45:02 GMT 46.425339 8.619779 35,000 174 436 0
2019-10-11 15:44:58 GMT 46.433121 8.618640 35,000 174 436 0
2019-10-11 15:44:55 GMT 46.438324 8.617882 35,000 174 436 64
2019-10-11 15:44:50 GMT 46.448753 8.616440 35,000 174 436 64
2019-10-11 15:44:47 GMT 46.454571 8.615616 34,975 174 435 64
2019-10-11 15:44:44 GMT 46.461365 8.614621 34,975 174 435 64
2019-10-11 15:44:41 GMT 46.475193 8.612663 34,975 174 435 64
2019-10-11 15:44:37 GMT 46.475193 8.612663 34,975 174 435 64
2019-10-11 15:44:33 GMT 46.484390 8.611339 34,975 174 435 64
2019-10-11 15:44:30 GMT 46.496017 8.609664 34,975 174 435 0
2019-10-11 15:44:24 GMT 46.503387 8.608659 34,975 174 434 0
2019-10-11 15:44:19 GMT 46.519592 8.606381 34,975 174 434 0
2019-10-11 15:44:16 GMT 46.519592 8.606381 34,975 174 434 0
2019-10-11 15:44:12 GMT 46.524586 8.605659 34,975 174 434 0
2019-10-11 15:44:08 GMT 46.532547 8.604492 34,975 174 434 0
2019-10-11 15:44:05 GMT 46.539322 8.603568 34,975 174 434 0
2019-10-11 15:44:02 GMT 46.545502 8.602697 34,975 174 433 0
2019-10-11 15:43:59 GMT 46.553867 8.601471 34,975 174 433 0
2019-10-11 15:43:56 GMT 46.565643 8.599816 34,975 174 433 0
2019-10-11 15:43:52 GMT 46.565643 8.599816 34,975 174 433 0
2019-10-11 15:43:49 GMT 46.572189 8.598878 34,975 174 433 0
2019-10-11 15:43:46 GMT 46.578960 8.597969 34,975 174 433 0
2019-10-11 15:43:43 GMT 46.583755 8.597282 34,975 174 433 0
2019-10-11 15:43:40 GMT 46.595490 8.595596 34,950 174 432 0
2019-10-11 15:43:34 GMT 46.606796 8.593987 34,950 174 432 0
2019-10-11 15:43:28 GMT 46.613731 8.592957 34,950 174 432 0
2019-10-11 15:43:25 GMT 46.619293 8.592179 34,950 174 432 0
2019-10-11 15:43:22 GMT 46.624878 8.591376 34,950 174 432 0
2019-10-11 15:43:19 GMT 46.630863 8.590553 34,950 174 432 0
2019-10-11 15:43:16 GMT 46.639160 8.589366 34,950 174 432 0
2019-10-11 15:43:13 GMT 46.643154 8.588768 34,975 174 432 -64
2019-10-11 15:43:09 GMT 46.652885 8.587395 34,950 174 433 0
2019-10-11 15:43:06 GMT 46.657864 8.586708 34,975 174 432 0
2019-10-11 15:43:03 GMT 46.664200 8.585815 34,975 174 432 0
2019-10-11 15:43:00 GMT 46.670574 8.584923 34,975 174 432 0
2019-10-11 15:42:56 GMT 46.683655 8.583069 34,975 174 432 0
2019-10-11 15:42:53 GMT 46.683655 8.583069 34,975 174 432 0
2019-10-11 15:42:50 GMT 46.687656 8.582520 34,975 174 433 0
2019-10-11 15:42:47 GMT 46.695015 8.581490 34,975 174 433 0
2019-10-11 15:42:44 GMT 46.700180 8.580724 34,975 174 433 0
2019-10-11 15:42:41 GMT 46.706139 8.579910 34,975 174 433 0
2019-10-11 15:42:38 GMT 46.716942 8.578400 34,975 174 433 -64
2019-10-11 15:42:32 GMT 46.725506 8.577164 34,975 174 433 -64
2019-10-11 15:42:29 GMT 46.730255 8.576504 34,975 174 433 -64
2019-10-11 15:42:26 GMT 46.737423 8.575447 34,975 174 433 -64
2019-10-11 15:42:23 GMT 46.748222 8.573936 35,000 174 432 0
2019-10-11 15:42:16 GMT 46.757954 8.572563 35,000 174 432 -64
2019-10-11 15:42:12 GMT 46.764332 8.571671 35,000 174 432 -64
2019-10-11 15:42:09 GMT 46.769264 8.570984 35,000 174 432 0
2019-10-11 15:42:06 GMT 46.778202 8.569679 35,000 174 432 0
2019-10-11 15:42:00 GMT 46.793892 8.567413 35,000 174 432 0
2019-10-11 15:41:57 GMT 46.793892 8.567413 35,000 174 432 0
2019-10-11 15:41:54 GMT 46.800083 8.566589 35,000 174 432 0
2019-10-11 15:41:51 GMT 46.807812 8.565422 35,000 174 432 0
2019-10-11 15:41:48 GMT 46.811581 8.564941 35,000 174 432 0
2019-10-11 15:41:45 GMT 46.818146 8.563980 35,000 174 432 0
2019-10-11 15:41:42 GMT 46.827267 8.562675 35,000 174 424 0
2019-10-11 15:41:39 GMT 46.831421 8.562034 35,000 174 432 0
2019-10-11 15:41:36 GMT 46.835415 8.561508 35,000 174 432 0
2019-10-11 15:41:33 GMT 46.847332 8.559792 35,000 174 433 0
2019-10-11 15:41:27 GMT 46.859024 8.558082 35,000 174 432 0
2019-10-11 15:41:24 GMT 46.865204 8.557211 35,000 174 433 0
2019-10-11 15:41:21 GMT 46.865204 8.557211 35,000 174 433 0
2019-10-11 15:41:18 GMT 46.873352 8.556015 35,000 174 433 0
2019-10-11 15:41:15 GMT 46.876942 8.555462 35,000 174 433 0
2019-10-11 15:41:12 GMT 46.881912 8.554779 35,000 174 433 0
2019-10-11 15:41:09 GMT 46.888870 8.553749 35,000 174 433 0
2019-10-11 15:41:06 GMT 46.894863 8.552856 35,000 174 433 0
2019-10-11 15:41:03 GMT 46.903614 8.551589 35,000 174 433 0
2019-10-11 15:41:00 GMT 46.908176 8.550955 35,000 174 433 0
2019-10-11 15:40:57 GMT 46.913574 8.550180 35,000 174 433 0
2019-10-11 15:40:54 GMT 46.920731 8.549149 35,000 174 433 0
2019-10-11 15:40:51 GMT 46.926472 8.548349 35,000 174 432 0
2019-10-11 15:40:47 GMT 46.940002 8.546402 35,000 174 432 64
2019-10-11 15:40:44 GMT 46.940002 8.546402 35,000 174 432 0
2019-10-11 15:40:41 GMT 46.944763 8.545715 35,000 174 432 0
2019-10-11 15:40:38 GMT 46.952122 8.544617 35,000 174 432 0
2019-10-11 15:40:35 GMT 46.957893 8.543842 35,000 174 432 0
2019-10-11 15:40:31 GMT 46.965668 8.542715 35,000 174 432 0
2019-10-11 15:40:28 GMT 46.970417 8.542011 35,000 174 432 0
2019-10-11 15:40:25 GMT 46.977959 8.540955 35,000 174 432 0
2019-10-11 15:40:21 GMT 46.984726 8.539948 35,000 174 432 0
2019-10-11 15:40:18 GMT 47.000351 8.537715 35,000 174 431 0
2019-10-11 15:40:14 GMT 47.000351 8.537715 35,000 174 432 0
2019-10-11 15:40:10 GMT 47.008118 8.536583 35,000 174 432 0
2019-10-11 15:40:07 GMT 47.019608 8.534935 35,000 174 431 0
2019-10-11 15:40:04 GMT 47.019608 8.534935 35,000 174 431 0
2019-10-11 15:40:00 GMT 47.028748 8.533630 35,000 174 432 0
2019-10-11 15:39:57 GMT 47.039455 8.532081 35,000 174 432 0
2019-10-11 15:39:53 GMT 47.039455 8.532081 35,000 174 432 0
2019-10-11 15:39:50 GMT 47.045177 8.531236 35,000 174 433 64
2019-10-11 15:39:47 GMT 47.060532 8.528961 35,000 174 433 64
2019-10-11 15:39:43 GMT 47.060532 8.528961 35,000 174 434 64
2019-10-11 15:39:40 GMT 47.066299 8.528137 34,700 174 434 768
2019-10-11 15:39:37 GMT 47.072662 8.527176 34,975 174 434 128
2019-10-11 15:39:34 GMT 47.078888 8.526283 34,975 174 435 256
2019-10-11 15:39:31 GMT 47.092243 8.524405 34,925 174 434 448
2019-10-11 15:39:28 GMT 47.092243 8.524405 34,925 174 434 640
2019-10-11 15:39:25 GMT 47.097244 8.523674 34,925 174 434 768
2019-10-11 15:39:22 GMT 47.102646 8.522850 34,900 174 434 896
2019-10-11 15:39:19 GMT 47.107422 8.522151 34,850 174 434 960
2019-10-11 15:39:15 GMT 47.116032 8.520954 34,700 174 435 960
2019-10-11 15:39:12 GMT 47.122223 8.520038 34,725 174 435 960
2019-10-11 15:39:09 GMT 47.128189 8.519211 34,700 174 435 960
2019-10-11 15:39:06 GMT 47.133591 8.518387 34,625 174 435 960
2019-10-11 15:39:03 GMT 47.145405 8.516728 34,525 174 435 1088
2019-10-11 15:38:57 GMT 47.158627 8.514756 34,400 174 435 1152
2019-10-11 15:38:54 GMT 47.158627 8.514756 34,325 174 435 1280
2019-10-11 15:38:51 GMT 47.164398 8.513982 34,300 174 435 1152
2019-10-11 15:38:48 GMT 47.169426 8.513207 34,250 174 435 1280
2019-10-11 15:38:45 GMT 47.175617 8.512292 34,150 174 436 1664
2019-10-11 15:38:42 GMT 47.181610 8.511452 34,150 174 436 1600
2019-10-11 15:38:39 GMT 47.188232 8.510460 34,100 174 436 1728
2019-10-11 15:38:36 GMT 47.194244 8.509529 34,000 174 437 1664
2019-10-11 15:38:33 GMT 47.207291 8.507675 33,825 174 438 1664
2019-10-11 15:38:30 GMT 47.207291 8.507675 33,675 174 438 1664
2019-10-11 15:38:26 GMT 47.216400 8.506305 33,650 174 439 1664
2019-10-11 15:38:23 GMT 47.220428 8.505753 33,650 174 439 1664
2019-10-11 15:38:19 GMT 47.228714 8.504517 33,425 174 440 1408
2019-10-11 15:38:16 GMT 47.235577 8.503559 33,450 174 440 1408
2019-10-11 15:38:13 GMT 47.239815 8.502925 33,375 174 441 1280
2019-10-11 15:38:10 GMT 47.249176 8.501564 33,275 174 441 1344
2019-10-11 15:38:07 GMT 47.251190 8.501289 33,250 174 441 1344
2019-10-11 15:38:03 GMT 47.261509 8.499756 33,150 174 441 1280
2019-10-11 15:38:00 GMT 47.267422 8.498911 33,075 174 441 1280
2019-10-11 15:37:57 GMT 47.271656 8.498277 33,025 174 441 1280
2019-10-11 15:37:54 GMT 47.279755 8.497101 32,950 174 441 1344
2019-10-11 15:37:51 GMT 47.284012 8.496483 32,900 174 441 1408
2019-10-11 15:37:48 GMT 47.291519 8.495453 32,775 174 442 1536
2019-10-11 15:37:45 GMT 47.299072 8.494354 32,725 174 442 1536
2019-10-11 15:37:42 GMT 47.302940 8.493770 32,600 174 443 1472
2019-10-11 15:37:39 GMT 47.311039 8.492643 32,575 174 443 1408
2019-10-11 15:37:35 GMT 47.316952 8.491727 32,525 174 443 1408
2019-10-11 15:37:32 GMT 47.324120 8.490741 32,375 174 444 1152
2019-10-11 15:37:29 GMT 47.331436 8.489685 32,275 174 444 1152
2019-10-11 15:37:26 GMT 47.336746 8.488861 32,300 174 444 1088
2019-10-11 15:37:23 GMT 47.342056 8.488106 32,275 174 444 1088
2019-10-11 15:37:20 GMT 47.356335 8.486023 32,175 174 443 960
2019-10-11 15:37:17 GMT 47.356335 8.486023 32,150 174 443 960
2019-10-11 15:37:11 GMT 47.366684 8.484535 32,050 174 443 1344
2019-10-11 15:37:08 GMT 47.375061 8.483299 31,950 174 444 2560
2019-10-11 15:37:03 GMT 47.383392 8.482063 31,725 174 446 2752
2019-10-11 15:37:00 GMT 47.389343 8.481171 31,525 174 449 2816
2019-10-11 15:36:57 GMT 47.394104 8.480484 31,500 174 451 2752
2019-10-11 15:36:54 GMT 47.400467 8.479523 31,275 174 451 2752
2019-10-11 15:36:51 GMT 47.412552 8.477737 31,125 174 454 2880
2019-10-11 15:36:48 GMT 47.419876 8.476639 30,900 174 456 3008
2019-10-11 15:36:42 GMT 47.426376 8.475677 30,725 174 460 2944
2019-10-11 15:36:39 GMT 47.433380 8.474614 30,625 174 462 2880
2019-10-11 15:36:36 GMT 47.439522 8.473699 30,450 174 464 2624
2019-10-11 15:36:33 GMT 47.445717 8.472783 30,275 174 468 2048
2019-10-11 15:36:30 GMT 47.451324 8.471970 30,275 174 466 2304
2019-10-11 15:36:27 GMT 47.465515 8.469910 30,000 174 469 1856
2019-10-11 15:36:21 GMT 47.471100 8.469086 29,950 174 469 1664
2019-10-11 15:36:18 GMT 47.477791 8.468135 29,850 174 470 1408
2019-10-11 15:36:15 GMT 47.484283 8.467163 29,775 174 470 1280
2019-10-11 15:36:11 GMT 47.495316 8.465584 29,675 174 468 960
2019-10-11 15:36:08 GMT 47.501129 8.464691 29,625 174 469 1024
2019-10-11 15:36:05 GMT 47.504559 8.464191 29,625 174 469 1024
2019-10-11 15:36:02 GMT 47.514496 8.462769 29,225 174 468 960
2019-10-11 15:35:59 GMT 47.524796 8.461258 29,475 174 467 896
2019-10-11 15:35:52 GMT 47.534912 8.459747 29,350 174 465 896
2019-10-11 15:35:49 GMT 47.539398 8.459129 29,350 174 465 896
2019-10-11 15:35:46 GMT 47.546921 8.457994 29,325 174 465 960
2019-10-11 15:35:43 GMT 47.554600 8.456867 29,250 174 464 1088
2019-10-11 15:35:39 GMT 47.561462 8.455902 29,075 174 463 1088
2019-10-11 15:35:35 GMT 47.570847 8.454529 29,125 174 463 1088
2019-10-11 15:35:29 GMT 47.584675 8.452501 29,000 174 461 960
2019-10-11 15:35:26 GMT 47.590401 8.451655 28,975 174 461 960
2019-10-11 15:35:23 GMT 47.595894 8.450881 28,925 174 460 960
2019-10-11 15:35:20 GMT 47.602688 8.449895 28,875 174 459 960
2019-10-11 15:35:17 GMT 47.611130 8.448624 28,775 174 456 960
2019-10-11 15:35:14 GMT 47.614326 8.448205 28,775 175 455 960
2019-10-11 15:35:11 GMT 47.623592 8.446867 28,700 174 456 960
2019-10-11 15:35:08 GMT 47.629486 8.446014 28,650 175 455 960
2019-10-11 15:35:05 GMT 47.633881 8.445458 28,575 176 453 1088
2019-10-11 15:35:02 GMT 47.640163 8.444754 28,550 177 452 1280
2019-10-11 15:34:59 GMT 47.647064 8.444092 28,525 176 452 1216
2019-10-11 15:34:55 GMT 47.655247 8.443486 28,425 177 452 1344
2019-10-11 15:34:52 GMT 47.662354 8.443062 28,300 178 451 1408
2019-10-11 15:34:49 GMT 47.667572 8.442856 28,300 179 451 1408
2019-10-11 15:34:46 GMT 47.674240 8.442641 28,250 179 450 1408
2019-10-11 15:34:43 GMT 47.678570 8.442641 28,025 188 437 1344
2019-10-11 15:34:40 GMT 47.690624 8.442711 28,025 182 448 1536
2019-10-11 15:34:34 GMT 47.699753 8.443062 27,925 183 447 1536
2019-10-11 15:34:29 GMT 47.713810 8.443979 27,750 184 445 1472
2019-10-11 15:34:23 GMT 47.730240 8.445740 27,600 185 444 1280
2019-10-11 15:34:19 GMT 47.730240 8.445740 27,575 186 443 1280
2019-10-11 15:34:16 GMT 47.734524 8.446374 27,525 186 443 1216
2019-10-11 15:34:13 GMT 47.742050 8.447456 27,450 187 441 1152
2019-10-11 15:34:09 GMT 47.754410 8.449654 27,125 188 433 1216
2019-10-11 15:34:06 GMT 47.754410 8.449654 27,325 188 439 1152
2019-10-11 15:34:03 GMT 47.763657 8.451508 27,250 188 438 1216
2019-10-11 15:33:59 GMT 47.769928 8.452744 27,125 188 437 1280
2019-10-11 15:33:56 GMT 47.776154 8.453979 27,100 188 437 1280
2019-10-11 15:33:53 GMT 47.782940 8.455318 27,025 188 437 1344
2019-10-11 15:33:50 GMT 47.787968 8.456304 26,925 188 436 1344
2019-10-11 15:33:47 GMT 47.802200 8.459129 26,875 188 436 1280
2019-10-11 15:33:44 GMT 47.802200 8.459129 26,800 188 435 1216
2019-10-11 15:33:37 GMT 47.813782 8.461464 26,700 188 434 1088
2019-10-11 15:33:34 GMT 47.821716 8.462994 26,650 188 424 1152
2019-10-11 15:33:31 GMT 47.825909 8.463839 26,600 188 432 1216
2019-10-11 15:33:27 GMT 47.834053 8.465459 26,075 188 426 1536
2019-10-11 15:33:24 GMT 47.839188 8.466476 26,475 188 431 1152
2019-10-11 15:33:21 GMT 47.844910 8.467644 26,425 188 431 1152
2019-10-11 15:33:18 GMT 47.851044 8.468811 26,350 188 429 1088
2019-10-11 15:33:15 GMT 47.857750 8.470177 26,200 188 427 1408
2019-10-11 15:33:11 GMT 47.865417 8.471695 25,450 188 427 1472
2019-10-11 15:33:08 GMT 47.872646 8.473135 26,150 188 427 1472
2019-10-11 15:33:05 GMT 47.876789 8.473910 26,000 188 425 1664
2019-10-11 15:33:02 GMT 47.882469 8.475107 26,000 188 426 1600
2019-10-11 15:32:59 GMT 47.888100 8.476234 25,975 188 426 1600
2019-10-11 15:32:56 GMT 47.895538 8.477669 25,800 188 425 1600
2019-10-11 15:32:53 GMT 47.900436 8.478630 25,750 188 425 1600
2019-10-11 15:32:50 GMT 47.907623 8.480072 25,700 188 424 1536
2019-10-11 15:32:46 GMT 47.919708 8.482475 25,550 188 424 1664
2019-10-11 15:32:40 GMT 47.925934 8.483711 25,325 188 423 1408
2019-10-11 15:32:37 GMT 47.930603 8.484604 24,850 188 419 1408
2019-10-11 15:32:34 GMT 47.937241 8.485909 25,175 188 422 1280
2019-10-11 15:32:31 GMT 47.942871 8.487076 25,150 188 422 1216
2019-10-11 15:32:26 GMT 47.953308 8.489136 25,100 188 420 1216
2019-10-11 15:32:23 GMT 47.960258 8.490530 25,025 188 420 1280
2019-10-11 15:32:20 GMT 47.964867 8.491516 24,975 188 419 1344
2019-10-11 15:32:16 GMT 47.973339 8.493206 24,850 188 418 1472
2019-10-11 15:32:13 GMT 47.984230 8.495389 24,750 188 418 1600
2019-10-11 15:32:10 GMT 47.984230 8.495389 24,675 188 417 1664
2019-10-11 15:32:07 GMT 47.990753 8.496689 23,925 188 418 2048
2019-10-11 15:32:04 GMT 48.002243 8.499023 24,425 188 418 2304
2019-10-11 15:32:00 GMT 48.002243 8.499023 23,175 188 415 1344
2019-10-11 15:31:56 GMT 48.009693 8.500460 24,325 188 417 2304
2019-10-11 15:31:53 GMT 48.018494 8.502251 24,100 188 418 2304
2019-10-11 15:31:50 GMT 48.021984 8.502925 23,850 188 419 2176
2019-10-11 15:31:45 GMT 48.033855 8.505319 23,825 188 418 2048
2019-10-11 15:31:41 GMT 48.039642 8.506439 23,700 188 418 2048
2019-10-11 15:31:38 GMT 48.045593 8.507675 23,650 188 418 2048
2019-10-11 15:31:35 GMT 48.051544 8.508842 23,475 188 418 1856
2019-10-11 15:31:32 GMT 48.055923 8.509686 23,375 188 416 1472
2019-10-11 15:31:29 GMT 48.062626 8.511024 23,075 188 411 1280
2019-10-11 15:31:25 GMT 48.070862 8.512756 23,200 188 415 1344
2019-10-11 15:31:22 GMT 48.075287 8.513630 23,200 188 417 1600
2019-10-11 15:31:19 GMT 48.081200 8.514827 23,075 188 415 1344
2019-10-11 15:31:16 GMT 48.088463 8.516306 22,975 188 414 1344
2019-10-11 15:31:13 GMT 48.098145 8.518207 22,925 188 396 1216
2019-10-11 15:31:10 GMT 48.098145 8.518207 21,350 188 396 1216
2019-10-11 15:31:07 GMT 48.103043 8.519211 22,825 188 411 1280
2019-10-11 15:31:04 GMT 48.109829 8.520602 22,650 188 409 1344
2019-10-11 15:31:01 GMT 48.117004 8.522026 22,525 188 408 1408
2019-10-11 15:30:58 GMT 48.123184 8.523262 22,575 188 408 1472
2019-10-11 15:30:55 GMT 48.127121 8.524017 22,475 188 407 1728
2019-10-11 15:30:52 GMT 48.131607 8.524910 22,050 188 400 1536
2019-10-11 15:30:49 GMT 48.146141 8.527785 22,250 188 406 1984
2019-10-11 15:30:44 GMT 48.146141 8.527785 22,125 188 405 1984
2019-10-11 15:30:41 GMT 48.152618 8.529099 21,975 188 405 1984
2019-10-11 15:30:38 GMT 48.158195 8.530180 21,950 188 404 1856
2019-10-11 15:30:34 GMT 48.165802 8.531729 21,800 188 403 1856
2019-10-11 15:30:31 GMT 48.171158 8.532856 21,675 188 403 1728
2019-10-11 15:30:28 GMT 48.178589 8.534353 21,700 188 403 1728
2019-10-11 15:30:25 GMT 48.183014 8.535250 21,650 188 402 1728
2019-10-11 15:30:22 GMT 48.187618 8.536160 21,425 188 399 1408
2019-10-11 15:30:19 GMT 48.194046 8.537504 21,400 188 399 1344
2019-10-11 15:30:16 GMT 48.199173 8.538560 21,375 188 398 1280
2019-10-11 15:30:12 GMT 48.208847 8.540569 21,275 188 396 1216
2019-10-11 15:30:09 GMT 48.212803 8.541364 21,225 188 394 1472
2019-10-11 15:30:06 GMT 48.217163 8.542293 21,150 188 393 1600
2019-10-11 15:30:03 GMT 48.222382 8.543349 21,075 188 392 1792
2019-10-11 15:30:00 GMT 48.227795 8.544400 21,000 188 392 1920
2019-10-11 15:29:57 GMT 48.233917 8.545673 20,875 188 391 1984
2019-10-11 15:29:54 GMT 48.239616 8.546857 20,750 188 390 1856
2019-10-11 15:29:49 GMT 48.254654 8.549893 20,600 188 389 1792
2019-10-11 15:29:45 GMT 48.254654 8.549893 20,300 196 377 2048
2019-10-11 15:29:42 GMT 48.262100 8.551411 20,400 188 387 1728
2019-10-11 15:29:39 GMT 48.264771 8.552011 20,350 188 386 1856
2019-10-11 15:29:36 GMT 48.270435 8.553146 20,250 188 386 1920
2019-10-11 15:29:32 GMT 48.278549 8.554758 20,075 188 385 2432
2019-10-11 15:29:29 GMT 48.282990 8.555673 19,975 188 385 2368
2019-10-11 15:29:26 GMT 48.290543 8.557223 19,925 188 385 2432
2019-10-11 15:29:22 GMT 48.295349 8.558138 19,700 188 385 2368
2019-10-11 15:29:19 GMT 48.300110 8.559124 18,500 188 385 2368
2019-10-11 15:29:16 GMT 48.306091 8.560373 19,500 189 384 2304
2019-10-11 15:29:12 GMT 48.311913 8.561602 19,425 189 385 2240
2019-10-11 15:29:09 GMT 48.318924 8.563209 19,200 193 379 2176
2019-10-11 15:29:04 GMT 48.326431 8.565251 19,025 200 373 2112
2019-10-11 15:29:01 GMT 48.332256 8.567312 18,925 204 370 2048
2019-10-11 15:28:58 GMT 48.337006 8.569770 18,800 204 370 2048
2019-10-11 15:28:55 GMT 48.341614 8.572516 18,675 206 368 2048
2019-10-11 15:28:51 GMT 48.352249 8.581027 18,550 223 353 1856
2019-10-11 15:28:48 GMT 48.352249 8.581027 18,475 214 361 1600
2019-10-11 15:28:44 GMT 48.359535 8.588562 18,375 220 355 1600
2019-10-11 15:28:40 GMT 48.364059 8.594266 18,250 223 353 1920
2019-10-11 15:28:35 GMT 48.370056 8.602512 18,075 224 351 2304
2019-10-11 15:28:31 GMT 48.374805 8.609234 18,025 224 351 2432
2019-10-11 15:28:28 GMT 48.376713 8.611908 17,950 224 351 2368
2019-10-11 15:28:24 GMT 48.381321 8.618413 17,650 224 351 2432
2019-10-11 15:28:21 GMT 48.385574 8.624408 17,575 224 351 2368
2019-10-11 15:28:18 GMT 48.395508 8.638493 17,325 224 350 1920
2019-10-11 15:28:13 GMT 48.395508 8.638493 17,200 224 348 2048
2019-10-11 15:28:07 GMT 48.401367 8.646804 17,025 224 347 2176
2019-10-11 15:28:04 GMT 48.406040 8.653396 16,675 224 345 2432
2019-10-11 15:28:00 GMT 48.410202 8.659339 16,825 224 345 2432
2019-10-11 15:27:57 GMT 48.413956 8.664599 16,650 224 345 2432
2019-10-11 15:27:53 GMT 48.419495 8.672509 16,450 224 344 2304
2019-10-11 15:27:49 GMT 48.423203 8.677720 16,250 224 343 2240
2019-10-11 15:27:45 GMT 48.427689 8.684129 16,200 224 342 2176
2019-10-11 15:27:42 GMT 48.431030 8.688847 16,025 224 340 2240
2019-10-11 15:27:39 GMT 48.434715 8.694089 15,975 224 340 2240
2019-10-11 15:27:36 GMT 48.441559 8.703774 15,750 224 339 2368
2019-10-11 15:27:30 GMT 48.445099 8.708833 15,625 224 338 2496
2019-10-11 15:27:26 GMT 48.449986 8.715772 15,200 224 337 2368
2019-10-11 15:27:21 GMT 48.455433 8.723506 15,250 224 336 2176
2019-10-11 15:27:18 GMT 48.458496 8.727863 15,175 224 336 2112
2019-10-11 15:27:15 GMT 48.461624 8.732324 14,975 224 333 2176
2019-10-11 15:27:12 GMT 48.466232 8.738901 14,975 224 333 2176
2019-10-11 15:27:09 GMT 48.469025 8.742877 14,750 224 331 2496
2019-10-11 15:27:03 GMT 48.475311 8.751767 14,050 224 331 2624
2019-10-11 15:27:00 GMT 48.478756 8.756682 14,400 224 331 2560
2019-10-11 15:26:57 GMT 48.481503 8.760657 14,275 224 330 2560
2019-10-11 15:26:54 GMT 48.485413 8.766150 14,125 224 330 2560
2019-10-11 15:26:51 GMT 48.488708 8.770893 14,075 224 328 2624
2019-10-11 15:26:48 GMT 48.495026 8.779907 13,850 224 328 2624
2019-10-11 15:26:42 GMT 48.497704 8.783642 13,250 224 328 2752
2019-10-11 15:26:39 GMT 48.502670 8.790753 13,400 224 327 2944
2019-10-11 15:26:36 GMT 48.504959 8.793992 13,375 224 327 2944
2019-10-11 15:26:32 GMT 48.509388 8.800266 13,000 224 327 2944
2019-10-11 15:26:29 GMT 48.516647 8.810601 12,925 224 327 2816
2019-10-11 15:26:26 GMT 48.516647 8.810601 12,850 224 327 2752
2019-10-11 15:26:21 GMT 48.522141 8.818408 12,625 224 326 3072
2019-10-11 15:26:15 GMT 48.528519 8.827442 12,325 224 326 3392
2019-10-11 15:26:11 GMT 48.532471 8.833078 11,925 224 327 2880
2019-10-11 15:26:08 GMT 48.535782 8.837778 11,850 224 327 3072
2019-10-11 15:26:05 GMT 48.539413 8.842910 11,775 224 327 2944
2019-10-11 15:26:02 GMT 48.543594 8.848853 11,525 224 326 2624
2019-10-11 15:25:58 GMT 48.546753 8.853361 10,650 224 310 1216
2019-10-11 15:25:54 GMT 48.554718 8.864699 11,300 224 321 1856
2019-10-11 15:25:51 GMT 48.554718 8.864699 11,200 224 310 1216
2019-10-11 15:25:48 GMT 48.557941 8.869292 10,650 224 310 1216
2019-10-11 15:25:44 GMT 48.561676 8.874629 11,025 224 310 1216
2019-10-11 15:25:41 GMT 48.565483 8.880061 11,025 224 309 1216
2019-10-11 15:25:37 GMT 48.572975 8.890831 10,650 224 273 1216
2019-10-11 15:25:33 GMT 48.576187 8.895475 10,650 224 273 1216
2019-10-11 15:25:30 GMT 48.576187 8.895475 10,825 224 296 1024
2019-10-11 15:25:26 GMT 48.580147 8.901166 10,775 224 293 1024
2019-10-11 15:25:23 GMT 48.583546 8.906081 10,650 224 285 896
2019-10-11 15:25:20 GMT 48.586105 8.909768 10,650 224 280 896
2019-10-11 15:25:13 GMT 48.592941 8.919631 10,525 224 272 1280
2019-10-11 15:25:10 GMT 48.595963 8.923927 10,450 224 268 1728
2019-10-11 15:25:05 GMT 48.600536 8.930511 10,275 224 263 2816
2019-10-11 15:25:02 GMT 48.602234 8.932941 9,900 224 263 2816
2019-10-11 15:24:58 GMT 48.605576 8.937800 9,900 224 262 2880
2019-10-11 15:24:55 GMT 48.608871 8.942449 9,850 224 262 2880
2019-10-11 15:24:52 GMT 48.612259 8.947378 9,525 224 261 2944
2019-10-11 15:24:48 GMT 48.615246 8.951617 9,200 224 259 3136
2019-10-11 15:24:44 GMT 48.617992 8.955520 9,325 224 260 3136
2019-10-11 15:24:40 GMT 48.621578 8.960652 9,075 224 259 3072
2019-10-11 15:24:37 GMT 48.625160 8.965711 8,875 224 259 3072
2019-10-11 15:24:34 GMT 48.627350 8.968819 8,750 224 258 3008
2019-10-11 15:24:31 GMT 48.629974 8.972520 8,475 224 258 3072
2019-10-11 15:24:28 GMT 48.632812 8.976675 8,125 236 251 2496
2019-10-11 15:24:24 GMT 48.636017 8.981253 8,150 226 255 3008
2019-10-11 15:24:21 GMT 48.638809 8.985408 8,075 236 251 2496
2019-10-11 15:24:17 GMT 48.641830 8.990197 7,875 236 251 2496
2019-10-11 15:24:14 GMT 48.644257 8.995127 7,725 241 248 2304
2019-10-11 15:24:10 GMT 48.646179 9.000056 7,450 251 242 2624
2019-10-11 15:24:06 GMT 48.647964 9.005479 7,500 250 243 2496
2019-10-11 15:24:03 GMT 48.649368 9.011174 7,175 254 240 3200
2019-10-11 15:23:56 GMT 48.651649 9.022811 6,925 254 239 3712
2019-10-11 15:23:52 GMT 48.652580 9.027726 6,450 254 241 4160
2019-10-11 15:23:46 GMT 48.654957 9.040013 6,200 254 243 4608
2019-10-11 15:23:43 GMT 48.655746 9.044283 5,925 254 246 4416
2019-10-11 15:23:39 GMT 48.656773 9.049554 5,775 254 246 4352
2019-10-11 15:23:35 GMT 48.658073 9.056348 5,325 254 250 3584
2019-10-11 15:23:32 GMT 48.659180 9.062030 5,275 254 249 3200
2019-10-11 15:23:28 GMT 48.660416 9.068510 5,075 254 247 3136
2019-10-11 15:23:24 GMT 48.661613 9.074852 4,400 254 245 3456
2019-10-11 15:23:21 GMT 48.662384 9.078862 4,725 254 246 3456
2019-10-11 15:23:12 GMT 48.665382 9.094367 4,200 254 244 2944
2019-10-11 15:23:01 GMT 48.669296 9.114427 3,675 254 236 1984
2019-10-11 15:22:50 GMT 48.672134 9.129350 3,375 254 223 1920
2019-10-11 15:22:42 GMT 48.674469 9.141470 3,175 254 209 768
2019-10-11 15:22:39 GMT 48.675201 9.145273 3,150 254 201 448
2019-10-11 15:22:30 GMT 48.677856 9.158654 3,000 254 186 1088
2019-10-11 15:22:25 GMT 48.678772 9.163584 2,925 254 183 1088
2019-10-11 15:22:21 GMT 48.679813 9.168958 2,825 255 177 1408
2019-10-11 15:22:18 GMT 48.680374 9.171922 2,775 254 173 1472
2019-10-11 15:22:11 GMT 48.682190 9.181535 2,550 254 162 1472
2019-10-11 15:22:08 GMT 48.682709 9.184148 2,500 255 157 1664
2019-10-11 15:21:59 GMT 48.684376 9.192882 2,225 255 154 2880
2019-10-11 15:21:50 GMT 48.686508 9.204149 1,700 254 158 2880
2019-10-11 15:21:39 GMT 48.688519 9.214855 1,225 254 163 1856
2019-10-11 15:21:29 GMT 48.690617 9.225841 1,125 254 136 128
2019-10-11 15:21:17 GMT 48.692337 9.234876 1,125 254 93 128
2019-10-11 15:21:07 GMT 48.693420 9.240622 0 253 43
2019-10-11 15:20:57 GMT 48.693764 9.242495 0 253 11
2019-10-11 15:20:47 GMT 48.693886 9.243224 0 239 11
2019-10-11 15:20:36 GMT 48.694313 9.243499 0 163 17
2019-10-11 15:20:25 GMT 48.695152 9.243098 0 143 18
2019-10-11 15:20:15 GMT 48.695423 9.241932 0 73 23
2019-10-11 15:20:03 GMT 48.695141 9.240405 0 84 18
2019-10-11 15:19:53 GMT 48.695305 9.239285 0 118 17
2019-10-11 15:19:43 GMT 48.695560 9.238291 0 81 13
2019-10-11 15:19:33 GMT 48.695446 9.237565 0 73 7
2019-10-11 15:19:23 GMT 48.695366 9.237178 0 73 3
2019-10-11 15:19:12 GMT 48.695354 9.237090 0 73 0
2019-10-11 15:19:01 GMT 48.695328 9.236990 0 75 7
2019-10-11 15:18:51 GMT 48.695225 9.236322 0 73 16
2019-10-11 15:18:40 GMT 48.695000 9.235171 0 73 22
2019-10-11 15:18:28 GMT 48.694618 9.233160 0 75 35
2019-10-11 15:18:17 GMT 48.694130 9.230593 0 73 35
2019-10-11 15:18:08 GMT 48.693699 9.228353 0 73 33
2019-10-11 15:17:58 GMT 48.693279 9.226094 0 73 31
2019-10-11 15:17:47 GMT 48.692894 9.224079 0 73 29
2019-10-11 15:17:36 GMT 48.692513 9.222083 0 73 26
2019-10-11 15:17:25 GMT 48.692173 9.220276 0 73 23
2019-10-11 15:17:15 GMT 48.691887 9.218779 0 73 20
2019-10-11 15:17:04 GMT 48.691605 9.217294 0 73 17
2019-10-11 15:16:50 GMT 48.691265 9.215505 0 73 24
2019-10-11 15:16:39 GMT 48.690903 9.213585 0 73 28
2019-10-11 15:16:16 GMT 48.690174 9.209723 0 73 23
2019-10-11 15:16:11 GMT 48.689987 9.208761 0 73 21
2019-10-11 15:15:53 GMT 48.689579 9.206579 0 73 16
2019-10-11 15:15:50 GMT 48.689529 9.206332 0 73 15
2019-10-11 15:15:35 GMT 48.689278 9.205046 0 81 11
2019-10-11 15:15:28 GMT 48.689301 9.204483 0 151 9
2019-10-11 15:15:17 GMT 48.689587 9.204307 0 163 5
2019-10-11 15:15:06 GMT 48.689754 9.204230 0 165 0
2019-10-11 15:14:41 GMT 48.689770 9.204219 0 165 0
2019-10-11 15:14:11 GMT 48.689777 9.204212 0 165 0
2019-10-11 15:13:50 GMT 48.689770 9.204219 0 165 0
2019-10-11 15:13:30 GMT 48.689777 9.204212 0 165 0
2019-10-11 15:12:55 GMT 48.689770 9.204219 0 165 0
2019-10-11 15:12:20 GMT 48.689777 9.204212 0 165 0
2019-10-11 15:12:16 GMT 48.689770 9.204219 0 165 0
2019-10-11 15:12:05 GMT 48.689777 9.204212 0 165 0
2019-10-11 15:11:30 GMT 48.689770 9.204219 0 165 0
We lost coverage of the aircraft here for a total of 244 minutes
2019-10-11 11:07:25 GMT 48.689770 9.204219 0 165 2 0
2019-10-11 11:07:20 GMT 48.689816 9.204201 0 165 5 0
2019-10-11 11:07:10 GMT 48.690125 9.204078 0 168 8 0
2019-10-11 11:07:01 GMT 48.690445 9.203937 0 219 8 0
2019-10-11 11:06:40 GMT 48.690346 9.205170 0 315 14 0
2019-10-11 11:06:28 GMT 48.689838 9.205962 0 312 16 0
2019-10-11 11:06:19 GMT 48.689278 9.206832 0 312 18 0
2019-10-11 11:06:05 GMT 48.688637 9.208251 0 284 25 0
2019-10-11 11:05:57 GMT 48.688393 9.209615 0 284 35 0
2019-10-11 11:05:47 GMT 48.688194 9.212271 0 264 39 0
2019-10-11 11:05:37 GMT 48.688614 9.215289 0 253 60 0
2019-10-11 11:05:26 GMT 48.689472 9.219818 0 253 76 0
2019-10-11 11:05:16 GMT 48.690544 9.225498 0 253 90 0
2019-10-11 11:05:05 GMT 48.691826 9.232419 1,000 254 117 0
2019-10-11 11:04:55 GMT 48.693512 9.241263 1,000 255 136 -448
2019-10-11 11:04:44 GMT 48.695297 9.250770 1,150 254 133 -512
2019-10-11 11:04:34 GMT 48.697174 9.260137 1,275 255 132 -704
2019-10-11 11:04:23 GMT 48.698902 9.269281 1,375 254 135 -576
2019-10-11 11:04:12 GMT 48.700809 9.279038 1,500 255 136 -768
2019-10-11 11:04:03 GMT 48.702255 9.288588 1,675 267 133 -896
2019-10-11 11:03:54 GMT 48.702484 9.296969 1,750 275 135 -256
2019-10-11 11:03:42 GMT 48.701599 9.307733 1,825 286 139 -832
2019-10-11 11:03:30 GMT 48.699234 9.318801 2,000 298 143 -896
2019-10-11 11:03:20 GMT 48.695549 9.327176 2,150 321 155 -832
2019-10-11 11:03:09 GMT 48.688286 9.334910 2,300 336 169 -576
2019-10-11 11:02:59 GMT 48.682114 9.337816 2,425 353 181 -1088
2019-10-11 11:02:50 GMT 48.673004 9.338238 2,675 8 191 -2048
2019-10-11 11:02:39 GMT 48.663986 9.334858 3,025 25 202 -1856
2019-10-11 11:02:29 GMT 48.655151 9.327533 3,325 31 217 -1600
2019-10-11 11:02:22 GMT 48.649555 9.322405 3,550 31 220 -2176
2019-10-11 11:02:18 GMT 48.646156 9.319297 3,650 31 225 -1152
2019-10-11 11:02:11 GMT 48.639084 9.312815 3,825 31 234 -768
2019-10-11 11:02:08 GMT 48.636795 9.310772 3,800 31 234 -768
2019-10-11 11:02:01 GMT 48.630798 9.305209 3,900 31 244 -896
2019-10-11 11:01:57 GMT 48.619434 9.294723 4,550 31 270 -768
2019-10-11 11:01:49 GMT 48.619434 9.294723 4,050 31 248 -832
2019-10-11 11:01:46 GMT 48.609474 9.285327 4,250 31 256 -1024
2019-10-11 11:01:40 GMT 48.609474 9.285327 4,225 31 256 -1024
2019-10-11 11:01:36 GMT 48.598938 9.275419 4,450 32 273 -704
2019-10-11 11:01:28 GMT 48.598938 9.275419 4,400 31 265 -896
2019-10-11 11:01:25 GMT 48.589279 9.266334 4,525 32 273 -704
2019-10-11 11:01:18 GMT 48.587677 9.264855 4,550 31 273 -704
2019-10-11 11:01:12 GMT 48.576096 9.253869 4,600 32 279 -768
2019-10-11 11:01:05 GMT 48.573074 9.250981 4,675 32 292 -640
2019-10-11 11:00:58 GMT 48.564377 9.242601 4,775 32 300 -832
2019-10-11 11:00:52 GMT 48.554718 9.233234 4,825 32 304 -704
2019-10-11 11:00:47 GMT 48.552429 9.230981 4,900 32 311 -704
2019-10-11 11:00:44 GMT 48.548073 9.226781 4,950 32 314 -768
2019-10-11 11:00:38 GMT 48.541992 9.220839 5,025 32 317 -832
2019-10-11 11:00:34 GMT 48.535828 9.214783 5,100 33 322 -832
2019-10-11 11:00:31 GMT 48.529221 9.208304 5,150 33 328 -640
2019-10-11 11:00:23 GMT 48.522049 9.201122 5,225 34 331 -640
2019-10-11 11:00:15 GMT 48.512646 9.191364 5,300 35 337 -640
2019-10-11 11:00:12 GMT 48.508923 9.187389 5,475 35 352 -2752
2019-10-11 11:00:04 GMT 48.499649 9.177457 6,475 35 352 -2112
2019-10-11 11:00:00 GMT 48.494476 9.171823 5,525 35 348 -1408
2019-10-11 10:59:54 GMT 48.480431 9.156599 5,775 35 351 -1792
2019-10-11 10:59:51 GMT 48.480431 9.156599 6,025 35 352 -2752
2019-10-11 10:59:45 GMT 48.469025 9.144358 6,475 35 350 -2944
2019-10-11 10:59:41 GMT 48.469025 9.144358 6,475 35 352 -1984
2019-10-11 10:59:38 GMT 48.463852 9.138794 6,475 35 351 -2432
2019-10-11 10:59:34 GMT 48.459778 9.134428 6,650 36 352 -1856
2019-10-11 10:59:29 GMT 48.452774 9.126822 6,675 37 353 -1728
2019-10-11 10:59:24 GMT 48.444443 9.117314 6,875 41 359 -1664
2019-10-11 10:59:19 GMT 48.438629 9.109979 7,000 42 359 -1664
2019-10-11 10:59:11 GMT 48.428432 9.095812 7,850 44 364 -2112
2019-10-11 10:59:07 GMT 48.425220 9.090970 7,350 44 365 -2176
2019-10-11 10:59:02 GMT 48.419075 9.081863 7,525 44 366 -2176
2019-10-11 10:58:58 GMT 48.412975 9.072683 7,725 45 368 -2112
2019-10-11 10:58:51 GMT 48.405994 9.062131 7,925 45 369 -2368
2019-10-11 10:58:47 GMT 48.400955 9.054495 8,125 45 379 -1088
2019-10-11 10:58:43 GMT 48.396870 9.048325 8,225 45 379 -1088
2019-10-11 10:58:40 GMT 48.392120 9.041170 8,300 45 375 -1280
2019-10-11 10:58:36 GMT 48.387608 9.034376 8,800 44 389 -1088
2019-10-11 10:58:33 GMT 48.384430 9.029564 8,525 44 381 -1088
2019-10-11 10:58:30 GMT 48.378948 9.021366 8,500 44 384 -1088
2019-10-11 10:58:23 GMT 48.371639 9.010451 8,650 82 399 -4992
2019-10-11 10:58:19 GMT 48.365585 9.001561 8,700 44 393 -1024
2019-10-11 10:58:13 GMT 48.351242 8.980619 8,850 43 401 -1280
2019-10-11 10:58:07 GMT 48.351242 8.980619 8,900 43 405 -1728
2019-10-11 10:58:04 GMT 48.347057 8.974674 8,975 43 406 -2048
2019-10-11 10:58:01 GMT 48.343048 8.968788 9,075 43 406 -2048
2019-10-11 10:57:57 GMT 48.337326 8.960548 9,275 43 408 -3008
2019-10-11 10:57:54 GMT 48.333527 8.955125 9,400 44 408 -3008
2019-10-11 10:57:51 GMT 48.328484 8.947858 9,575 44 408 -2944
2019-10-11 10:57:46 GMT 48.320759 8.936583 9,675 44 410 -2944
2019-10-11 10:57:42 GMT 48.316910 8.931040 9,975 44 410 -2944
2019-10-11 10:57:38 GMT 48.310375 8.921549 10,175 44 411 -2816
2019-10-11 10:57:34 GMT 48.306141 8.915405 10,350 44 413 -2752
2019-10-11 10:57:31 GMT 48.301903 8.909262 12,325 44 413 -2624
2019-10-11 10:57:26 GMT 48.287518 8.888229 11,225 45 413 -3264
2019-10-11 10:57:20 GMT 48.287518 8.888229 12,325 47 411 -3712
2019-10-11 10:57:16 GMT 48.272095 8.862164 11,450 50 409 -4288
2019-10-11 10:57:09 GMT 48.272095 8.862164 11,900 55 406 -4864
2019-10-11 10:57:05 GMT 48.268433 8.853995 12,200 60 403 -5376
2019-10-11 10:57:00 GMT 48.264381 8.842621 12,625 67 402 -5504
2019-10-11 10:56:55 GMT 48.260330 8.827867 13,100 73 403 -4480
2019-10-11 10:56:50 GMT 48.257957 8.816095 13,475 78 404 -3968
2019-10-11 10:56:47 GMT 48.256748 8.807566 13,725 81 404 -4416
2019-10-11 10:56:44 GMT 48.255661 8.798218 13,875 81 404 -4544
2019-10-11 10:56:40 GMT 48.254467 8.785738 14,225 82 400 -4992
2019-10-11 10:56:37 GMT 48.253860 8.779160 14,675 82 394 -4992
2019-10-11 10:56:34 GMT 48.252975 8.769258 14,675 82 394 -4992
2019-10-11 10:56:29 GMT 48.251999 8.758055 15,100 82 393 -4992
2019-10-11 10:56:26 GMT 48.251404 8.751033 15,275 82 391 -5056
2019-10-11 10:56:23 GMT 48.250557 8.741937 15,425 82 389 -5056
2019-10-11 10:56:20 GMT 48.249802 8.733920 15,625 81 388 -5056
2019-10-11 10:56:17 GMT 48.248928 8.724951 16,075 80 383 -4800
2019-10-11 10:56:13 GMT 48.247810 8.714760 16,350 80 381 -3904
2019-10-11 10:56:10 GMT 48.246780 8.705890 16,550 82 382 -3136
2019-10-11 10:56:07 GMT 48.245270 8.686383 17,125 148 461 -3328
2019-10-11 10:56:03 GMT 48.245270 8.686383 16,925 88 389 -1664
2019-10-11 10:55:59 GMT 48.245110 8.672622 16,925 93 394 -896
2019-10-11 10:55:56 GMT 48.245201 8.669948 16,975 94 397 -512
2019-10-11 10:55:51 GMT 48.246227 8.656937 16,975 101 409 0
2019-10-11 10:55:47 GMT 48.247971 8.644480 16,975 107 419 -192
2019-10-11 10:55:44 GMT 48.249573 8.636451 17,025 135 451 -1856
2019-10-11 10:55:41 GMT 48.252094 8.626580 17,325 135 451 -1856
2019-10-11 10:55:37 GMT 48.254883 8.617507 17,050 138 454 -2112
2019-10-11 10:55:33 GMT 48.264336 8.595067 17,175 170 449 -4416
2019-10-11 10:55:28 GMT 48.264336 8.595067 17,175 127 443 -1280
2019-10-11 10:55:25 GMT 48.267735 8.588634 17,300 132 449 -1600
2019-10-11 10:55:22 GMT 48.271683 8.581872 17,300 132 449 -1600
2019-10-11 10:55:18 GMT 48.278023 8.572444 17,500 138 454 -2112
2019-10-11 10:55:15 GMT 48.283890 8.564855 17,650 142 457 -2560
2019-10-11 10:55:12 GMT 48.289536 8.558279 17,725 144 459 -2688
2019-10-11 10:55:08 GMT 48.295258 8.552293 18,050 151 462 -3904
2019-10-11 10:55:05 GMT 48.300156 8.547786 18,425 152 462 -4288
2019-10-11 10:55:02 GMT 48.305878 8.542856 18,300 154 461 -4672
2019-10-11 10:54:59 GMT 48.312378 8.538112 18,625 156 459 -5568
2019-10-11 10:54:54 GMT 48.320938 8.532644 19,100 161 452 -6720
2019-10-11 10:54:51 GMT 48.326855 8.529438 20,325 168 447 -5376
2019-10-11 10:54:45 GMT 48.341614 8.523222 20,200 167 447 -5632
2019-10-11 10:54:41 GMT 48.347260 8.521376 24,000 170 448 -4800
2019-10-11 10:54:37 GMT 48.357285 8.518841 21,275 173 450 -3904
2019-10-11 10:54:33 GMT 48.372437 8.516587 21,100 176 452 -3840
2019-10-11 10:54:30 GMT 48.372437 8.516587 24,000 178 454 -4096
2019-10-11 10:54:26 GMT 48.377274 8.516356 21,450 180 455 -4288
2019-10-11 10:54:23 GMT 48.384209 8.516356 21,675 182 455 -4480
2019-10-11 10:54:20 GMT 48.391144 8.516717 21,900 184 456 -4480
2019-10-11 10:54:15 GMT 48.401665 8.518018 22,475 187 458 -4736
2019-10-11 10:54:12 GMT 48.407112 8.518886 22,625 187 459 -4864
2019-10-11 10:54:09 GMT 48.414097 8.520042 22,800 186 460 -6080
2019-10-11 10:54:06 GMT 48.421452 8.521198 23,150 186 459 -6144
2019-10-11 10:54:02 GMT 48.429932 8.522503 23,350 186 460 -6144
2019-10-11 10:53:59 GMT 48.441978 8.524379 24,100 186 461 -5824
2019-10-11 10:53:56 GMT 48.441978 8.524379 24,350 186 461 -5696
2019-10-11 10:53:52 GMT 48.451103 8.525752 25,500 186 463 -5760
2019-10-11 10:53:47 GMT 48.460880 8.527125 25,500 186 467 -4160
2019-10-11 10:53:43 GMT 48.474747 8.529053 25,875 186 468 -4032
2019-10-11 10:53:37 GMT 48.482712 8.530180 25,725 186 470 -4608
2019-10-11 10:53:33 GMT 48.490067 8.531173 25,875 186 469 -4736
2019-10-11 10:53:28 GMT 48.501526 8.532644 26,350 185 462 -4928
2019-10-11 10:53:25 GMT 48.515717 8.534405 26,725 185 466 -4672
2019-10-11 10:53:22 GMT 48.515717 8.534405 27,025 185 462 -4928
2019-10-11 10:53:19 GMT 48.521305 8.535076 27,200 185 462 -4928
2019-10-11 10:53:16 GMT 48.533432 8.536518 28,700 185 466 -2816
2019-10-11 10:53:13 GMT 48.533432 8.536518 28,350 185 460 -4736
2019-10-11 10:53:10 GMT 48.540253 8.537317 27,975 185 459 -4032
2019-10-11 10:53:07 GMT 48.545517 8.537926 28,100 185 460 -3648
2019-10-11 10:53:04 GMT 48.554443 8.538912 28,425 185 460 -3136
2019-10-11 10:53:00 GMT 48.569950 8.540714 28,600 185 462 -2752
2019-10-11 10:52:57 GMT 48.569950 8.540714 28,625 185 462 -2752
2019-10-11 10:52:54 GMT 48.581867 8.542159 28,950 185 465 -2944
2019-10-11 10:52:51 GMT 48.581867 8.542159 28,950 185 464 -2944
2019-10-11 10:52:48 GMT 48.586571 8.542665 28,975 185 465 -2944
2019-10-11 10:52:45 GMT 48.599625 8.544265 29,475 185 466 -2816
2019-10-11 10:52:38 GMT 48.609287 8.545339 29,625 185 467 -2816
2019-10-11 10:52:34 GMT 48.618134 8.546424 29,725 185 469 -2880
2019-10-11 10:52:31 GMT 48.621998 8.546857 30,600 185 474 -2944
2019-10-11 10:52:28 GMT 48.630020 8.547856 30,050 185 469 -2944
2019-10-11 10:52:25 GMT 48.635868 8.548520 30,125 185 470 -2944
2019-10-11 10:52:22 GMT 48.649109 8.550110 30,400 185 473 -2624
2019-10-11 10:52:19 GMT 48.649109 8.550110 30,375 185 473 -2624
2019-10-11 10:52:16 GMT 48.657394 8.551096 31,275 185 474 -3968
2019-10-11 10:52:11 GMT 48.667850 8.552350 30,800 185 474 -3904
2019-10-11 10:52:08 GMT 48.672459 8.552856 30,875 185 474 -3712
2019-10-11 10:52:05 GMT 48.679256 8.553724 31,600 185 471 -4096
2019-10-11 10:52:01 GMT 48.689941 8.554969 31,975 185 472 -4160
2019-10-11 10:51:58 GMT 48.696899 8.555820 31,575 185 472 -4160
2019-10-11 10:51:55 GMT 48.709717 8.557364 32,525 185 470 -3712
2019-10-11 10:51:52 GMT 48.718597 8.558420 32,100 185 471 -3264
2019-10-11 10:51:48 GMT 48.718597 8.558420 32,225 185 471 -3328
2019-10-11 10:51:45 GMT 48.722736 8.558928 32,500 185 471 -3328
2019-10-11 10:51:42 GMT 48.729439 8.559723 32,775 185 471 -3328
2019-10-11 10:51:39 GMT 48.743126 8.561385 32,875 185 470 -3712
2019-10-11 10:51:33 GMT 48.748535 8.562012 33,075 185 469 -3968
2019-10-11 10:51:30 GMT 48.756348 8.562975 33,350 185 467 -4288
2019-10-11 10:51:27 GMT 48.762817 8.563772 33,600 185 467 -4288
2019-10-11 10:51:23 GMT 48.771198 8.564782 35,000 185 464 -4224
2019-10-11 10:51:20 GMT 48.786606 8.566662 35,150 185 464 -4352
2019-10-11 10:51:16 GMT 48.786606 8.566662 34,300 185 466 -3136
2019-10-11 10:51:12 GMT 48.794357 8.567505 34,525 185 466 -3328
2019-10-11 10:51:08 GMT 48.805756 8.568913 35,300 185 459 -832
2019-10-11 10:51:05 GMT 48.809601 8.569336 34,850 185 465 -3904
2019-10-11 10:51:02 GMT 48.816467 8.570181 35,050 185 462 -4544
2019-10-11 10:50:57 GMT 48.827179 8.571449 35,450 185 461 -4608
2019-10-11 10:50:54 GMT 48.834835 8.572444 35,675 185 457 -2048
2019-10-11 10:50:51 GMT 48.841816 8.573311 35,850 185 459 -4480
2019-10-11 10:50:48 GMT 48.844574 8.573632 36,525 185 462 64
2019-10-11 10:50:45 GMT 48.852615 8.574612 36,350 185 457 -3264
2019-10-11 10:50:41 GMT 48.861649 8.575674 36,450 185 456 -2880
2019-10-11 10:50:37 GMT 48.868607 8.576519 36,750 185 457 -1792
2019-10-11 10:50:34 GMT 48.876591 8.577503 36,775 185 457 -1664
2019-10-11 10:50:31 GMT 48.881016 8.578009 36,800 185 458 -1472
2019-10-11 10:50:28 GMT 48.887100 8.578773 36,975 185 461 -256
2019-10-11 10:50:25 GMT 48.894932 8.579672 36,925 185 460 -640
2019-10-11 10:50:22 GMT 48.901497 8.580467 36,975 185 461 -320
2019-10-11 10:50:19 GMT 48.908295 8.581308 36,975 185 461 -256
2019-10-11 10:50:15 GMT 48.914429 8.582012 37,000 185 462 -192
2019-10-11 10:50:12 GMT 48.921249 8.582858 37,000 185 462 0
2019-10-11 10:50:09 GMT 48.930176 8.583914 37,000 185 462 0
2019-10-11 10:50:03 GMT 48.942535 8.585393 37,000 185 462 -64
2019-10-11 10:50:00 GMT 48.947845 8.586027 37,000 185 462 -64
2019-10-11 10:49:57 GMT 48.953171 8.586683 37,000 185 462 -64
2019-10-11 10:49:54 GMT 48.960014 8.587550 37,025 185 462 0
2019-10-11 10:49:50 GMT 48.970440 8.588779 37,025 185 462 0
2019-10-11 10:49:47 GMT 48.977646 8.589689 37,025 185 462 0
2019-10-11 10:49:44 GMT 48.981079 8.590111 37,025 185 462 0
2019-10-11 10:49:40 GMT 48.991062 8.591309 37,000 185 462 0
2019-10-11 10:49:37 GMT 48.996418 8.591959 37,025 185 462 0
2019-10-11 10:49:31 GMT 49.008957 8.593562 37,025 185 462 0
2019-10-11 10:49:28 GMT 49.015316 8.594344 37,025 185 462 0
2019-10-11 10:49:25 GMT 49.021271 8.595041 37,025 185 462 64
2019-10-11 10:49:22 GMT 49.029373 8.596079 37,000 185 462 64
2019-10-11 10:49:19 GMT 49.035553 8.596802 37,000 185 462 64
2019-10-11 10:49:16 GMT 49.040642 8.597452 37,000 185 462 64
2019-10-11 10:49:13 GMT 49.048927 8.598464 37,000 185 462 64
2019-10-11 10:49:10 GMT 49.055958 8.599332 37,000 185 461 0
2019-10-11 10:49:07 GMT 49.060425 8.599910 37,000 185 462 0
2019-10-11 10:49:01 GMT 49.072762 8.601355 37,000 185 462 0
2019-10-11 10:48:58 GMT 49.080212 8.602295 37,000 185 462 0
2019-10-11 10:48:55 GMT 49.086182 8.602999 37,000 185 461 0
2019-10-11 10:48:52 GMT 49.093597 8.603915 37,000 185 461 0
2019-10-11 10:48:49 GMT 49.103394 8.605112 37,000 185 461 0
2019-10-11 10:48:43 GMT 49.112915 8.606309 37,000 185 461 0
2019-10-11 10:48:40 GMT 49.118683 8.607013 37,000 185 461 0
2019-10-11 10:48:36 GMT 49.125275 8.607859 37,000 185 461 0
2019-10-11 10:48:33 GMT 49.131653 8.608583 37,000 185 461 0
2019-10-11 10:48:30 GMT 49.140774 8.609740 37,000 185 461 0
2019-10-11 10:48:26 GMT 49.147758 8.610607 37,000 185 460 0
2019-10-11 10:48:23 GMT 49.154114 8.611380 36,975 185 457 64
2019-10-11 10:48:17 GMT 49.166016 8.612788 37,000 185 460 0
2019-10-11 10:48:14 GMT 49.174667 8.613845 37,000 185 460 0
2019-10-11 10:48:11 GMT 49.185513 8.615160 37,000 185 460 0
2019-10-11 10:48:08 GMT 49.185513 8.615160 37,000 185 460 0
2019-10-11 10:48:05 GMT 49.191833 8.615957 37,000 185 460 0
2019-10-11 10:48:01 GMT 49.208183 8.617907 36,975 185 457 64
2019-10-11 10:47:58 GMT 49.208183 8.617907 36,975 185 460 0
2019-10-11 10:47:54 GMT 49.215775 8.618845 36,975 185 460 0
2019-10-11 10:47:51 GMT 49.222801 8.619714 37,000 185 460 0
2019-10-11 10:47:48 GMT 49.228912 8.620465 37,000 185 459 0
2019-10-11 10:47:45 GMT 49.241421 8.621955 37,000 185 459 64
2019-10-11 10:47:41 GMT 49.241421 8.621955 37,000 185 459 64
2019-10-11 10:47:38 GMT 49.255554 8.623704 37,000 185 459 0
2019-10-11 10:47:32 GMT 49.262970 8.624620 36,975 185 458 0
2019-10-11 10:47:29 GMT 49.269516 8.625465 37,000 185 458 0
2019-10-11 10:47:26 GMT 49.274567 8.626075 37,000 185 458 0
2019-10-11 10:47:23 GMT 49.280045 8.626732 36,975 185 457 64
2019-10-11 10:47:20 GMT 49.289154 8.627859 37,000 185 458 0
2019-10-11 10:47:17 GMT 49.295048 8.628604 37,000 185 457 0
2019-10-11 10:47:14 GMT 49.299473 8.629110 37,000 185 457 64
2019-10-11 10:47:11 GMT 49.308083 8.630194 37,000 185 457 0
2019-10-11 10:47:08 GMT 49.313553 8.630888 36,975 185 457 0
2019-10-11 10:47:05 GMT 49.320515 8.631712 36,975 185 457 0
2019-10-11 10:47:02 GMT 49.326611 8.632507 36,975 185 457 -64
2019-10-11 10:46:59 GMT 49.331268 8.633071 36,975 185 457 0
2019-10-11 10:46:56 GMT 49.344952 8.634748 36,975 185 457 0
2019-10-11 10:46:53 GMT 49.344952 8.634748 37,000 185 457 -64
2019-10-11 10:46:47 GMT 49.356949 8.636240 37,000 185 457 0
2019-10-11 10:46:44 GMT 49.363907 8.637085 37,000 185 457 -64
2019-10-11 10:46:41 GMT 49.369583 8.637789 37,000 185 457 0
2019-10-11 10:46:38 GMT 49.376953 8.638705 37,000 185 457 0
2019-10-11 10:46:34 GMT 49.385780 8.639807 37,000 185 456 0
2019-10-11 10:46:31 GMT 49.390823 8.640395 37,000 185 457 0
2019-10-11 10:46:28 GMT 49.398605 8.641381 37,000 185 457 0
2019-10-11 10:46:22 GMT 49.411476 8.642988 37,000 185 456 0
2019-10-11 10:46:19 GMT 49.417995 8.643783 37,000 185 457 0
2019-10-11 10:46:16 GMT 49.421951 8.644268 37,000 185 457 0
2019-10-11 10:46:13 GMT 49.426605 8.644795 37,000 185 457 0
2019-10-11 10:46:10 GMT 49.439850 8.646457 37,000 185 457 -64
2019-10-11 10:46:07 GMT 49.439850 8.646457 37,000 185 457 -64
2019-10-11 10:46:04 GMT 49.446575 8.647279 37,025 185 457 0
2019-10-11 10:46:01 GMT 49.452721 8.648022 37,000 185 457 -64
2019-10-11 10:45:58 GMT 49.460495 8.648987 37,000 185 457 0
2019-10-11 10:45:55 GMT 49.465530 8.649565 37,000 185 457 0
2019-10-11 10:45:52 GMT 49.473530 8.650620 37,000 185 456 0
2019-10-11 10:45:49 GMT 49.478989 8.651300 37,000 185 456 0
2019-10-11 10:45:46 GMT 49.485077 8.652023 37,000 185 456 0
2019-10-11 10:45:43 GMT 49.499405 8.653829 37,000 185 456 0
2019-10-11 10:45:40 GMT 49.499405 8.653829 37,025 185 456 -64
2019-10-11 10:45:37 GMT 49.505493 8.654625 37,025 185 456 -64
2019-10-11 10:45:34 GMT 49.509476 8.655130 37,025 185 456 -64
2019-10-11 10:45:31 GMT 49.515976 8.655926 37,025 185 456 0
2019-10-11 10:45:28 GMT 49.523109 8.656781 37,025 185 456 0
2019-10-11 10:45:25 GMT 49.530045 8.657672 37,025 185 456 0
2019-10-11 10:45:21 GMT 49.536346 8.658455 37,025 185 456 0
2019-10-11 10:45:18 GMT 49.545181 8.659539 37,025 185 456 0
2019-10-11 10:45:15 GMT 49.550667 8.660270 37,025 185 456 0
2019-10-11 10:45:12 GMT 49.557369 8.661087 37,000 185 456 0
2019-10-11 10:45:08 GMT 49.563492 8.661852 37,025 185 457 0
2019-10-11 10:45:05 GMT 49.572510 8.662937 37,000 185 457 0
2019-10-11 10:45:01 GMT 49.578186 8.663659 37,025 185 457 0
2019-10-11 10:44:58 GMT 49.584511 8.664427 37,025 185 457 0
2019-10-11 10:44:54 GMT 49.593170 8.665541 37,025 185 457 0
2019-10-11 10:44:51 GMT 49.600712 8.666506 37,025 185 457 0
2019-10-11 10:44:48 GMT 49.607895 8.667346 37,025 185 457 0
2019-10-11 10:44:45 GMT 49.614212 8.668141 37,025 185 457 0
2019-10-11 10:44:42 GMT 49.620075 8.668881 37,025 185 457 0
2019-10-11 10:44:39 GMT 49.626408 8.669698 37,025 185 457 64
2019-10-11 10:44:36 GMT 49.633762 8.670588 37,025 185 457 64
2019-10-11 10:44:33 GMT 49.639023 8.671256 37,000 185 457 64
2019-10-11 10:44:29 GMT 49.647446 8.672333 37,000 185 457 0
2019-10-11 10:44:26 GMT 49.653362 8.673112 37,000 185 457 0
2019-10-11 10:44:23 GMT 49.661602 8.674151 37,000 185 457 0
2019-10-11 10:44:20 GMT 49.666443 8.674745 37,000 185 457 64
2019-10-11 10:44:17 GMT 49.673996 8.675658 37,000 185 458 0
2019-10-11 10:44:14 GMT 49.680542 8.676453 37,000 185 458 0
2019-10-11 10:44:11 GMT 49.687298 8.677343 37,000 185 458 0
2019-10-11 10:44:07 GMT 49.693398 8.678086 37,000 185 458 0
2019-10-11 10:44:04 GMT 49.701637 8.679125 37,000 185 458 0
2019-10-11 10:44:01 GMT 49.706268 8.679705 37,000 185 458 0
2019-10-11 10:43:58 GMT 49.712814 8.680500 37,000 185 458 0
2019-10-11 10:43:55 GMT 49.719559 8.681352 37,000 185 458 0
2019-10-11 10:43:52 GMT 49.733276 8.683030 37,000 185 458 0
2019-10-11 10:43:49 GMT 49.738129 8.683608 37,000 185 458 64
2019-10-11 10:43:46 GMT 49.738129 8.683608 37,000 185 457 0
2019-10-11 10:43:43 GMT 49.746323 8.684620 37,025 185 458 0
2019-10-11 10:43:40 GMT 49.752659 8.685435 37,000 185 458 64
2019-10-11 10:43:37 GMT 49.756660 8.685954 37,000 185 457 64
2019-10-11 10:43:33 GMT 49.766373 8.687150 37,000 185 457 64
2019-10-11 10:43:30 GMT 49.770355 8.687728 37,000 185 457 64
2019-10-11 10:43:27 GMT 49.776672 8.688523 37,000 185 457 0
2019-10-11 10:43:24 GMT 49.784271 8.689463 37,000 185 457 0
2019-10-11 10:43:21 GMT 49.790359 8.690258 37,000 185 457 0
2019-10-11 10:43:18 GMT 49.795624 8.690928 37,000 185 457 0
2019-10-11 10:43:15 GMT 49.810150 8.692709 37,000 185 457 0
2019-10-11 10:43:12 GMT 49.810150 8.692709 37,000 185 449 0
2019-10-11 10:43:09 GMT 49.816483 8.693526 37,000 185 457 0
2019-10-11 10:43:06 GMT 49.820251 8.693944 37,000 185 457 0
2019-10-11 10:43:03 GMT 49.829727 8.695100 37,000 185 457 0
2019-10-11 10:42:59 GMT 49.837521 8.696124 37,000 185 456 64
2019-10-11 10:42:53 GMT 49.849300 8.697609 37,000 186 455 0
2019-10-11 10:42:50 GMT 49.856415 8.698714 36,975 187 454 0
2019-10-11 10:42:46 GMT 49.863739 8.699943 36,975 189 452 0
2019-10-11 10:42:43 GMT 49.870193 8.701172 37,000 189 449 0
2019-10-11 10:42:40 GMT 49.878071 8.702879 36,975 189 451 0
2019-10-11 10:42:37 GMT 49.881981 8.703770 36,975 189 451 0
2019-10-11 10:42:34 GMT 49.888405 8.705255 36,975 189 451 0
2019-10-11 10:42:31 GMT 49.896412 8.707110 36,975 189 451 0
2019-10-11 10:42:28 GMT 49.902191 8.708472 37,000 189 451 0
2019-10-11 10:42:25 GMT 49.907547 8.709701 36,975 189 451 0
2019-10-11 10:42:22 GMT 49.914780 8.711363 36,975 189 451 0
2019-10-11 10:42:18 GMT 49.923645 8.713420 36,975 189 451 0
2019-10-11 10:42:15 GMT 49.928146 8.714471 36,975 189 451 0
2019-10-11 10:42:11 GMT 49.936398 8.716389 36,975 189 451 0
2019-10-11 10:42:08 GMT 49.943569 8.718023 36,975 189 450 -64
2019-10-11 10:42:05 GMT 49.948734 8.719210 37,000 189 450 -64
2019-10-11 10:42:01 GMT 49.958370 8.721437 37,000 189 450 -64
2019-10-11 10:41:58 GMT 49.968658 8.723813 37,000 189 450 -64
2019-10-11 10:41:55 GMT 49.968658 8.723813 37,000 189 449 0
2019-10-11 10:41:52 GMT 49.976074 8.725530 37,000 189 450 0
2019-10-11 10:41:49 GMT 49.981384 8.726831 37,000 189 449 -64
2019-10-11 10:41:46 GMT 49.995346 8.730011 37,000 189 449 0
2019-10-11 10:41:43 GMT 49.995346 8.730011 37,000 189 449 0
2019-10-11 10:41:39 GMT 50.002121 8.731601 37,000 189 448 0
2019-10-11 10:41:36 GMT 50.009308 8.733264 37,000 189 449 0
2019-10-11 10:41:33 GMT 50.012604 8.734057 37,000 189 449 0
2019-10-11 10:41:30 GMT 50.020985 8.735987 37,000 189 449 0
2019-10-11 10:41:24 GMT 50.033691 8.738956 37,000 189 449 0
2019-10-11 10:41:21 GMT 50.041077 8.740708 37,000 189 449 0
2019-10-11 10:41:18 GMT 50.047611 8.742222 37,000 189 449 0
2019-10-11 10:41:15 GMT 50.053574 8.743599 37,000 189 449 64
2019-10-11 10:41:12 GMT 50.063599 8.745985 37,000 189 449 0
2019-10-11 10:41:09 GMT 50.063599 8.745985 37,000 189 449 0
2019-10-11 10:41:06 GMT 50.071587 8.747790 37,000 189 449 0
2019-10-11 10:41:03 GMT 50.076096 8.748876 37,000 189 449 0
2019-10-11 10:41:00 GMT 50.080994 8.750032 37,000 189 448 0
2019-10-11 10:40:57 GMT 50.087555 8.751501 37,000 189 448 0
2019-10-11 10:40:54 GMT 50.095551 8.753357 37,000 189 449 0
2019-10-11 10:40:48 GMT 50.107059 8.756029 37,000 189 450 0
2019-10-11 10:40:45 GMT 50.114227 8.757737 37,000 189 449 0
2019-10-11 10:40:42 GMT 50.118137 8.758627 37,000 189 450 0
2019-10-11 10:40:39 GMT 50.124935 8.760186 37,000 189 450 0
2019-10-11 10:40:36 GMT 50.132523 8.761968 37,000 189 449 0
2019-10-11 10:40:32 GMT 50.139877 8.763675 37,000 189 449 0
2019-10-11 10:40:28 GMT 50.147095 8.765427 37,000 189 449 0
2019-10-11 10:40:25 GMT 50.155060 8.767307 37,000 189 449 -64
2019-10-11 10:40:22 GMT 50.159363 8.768319 37,000 189 449 0
2019-10-11 10:40:16 GMT 50.172089 8.771282 37,000 189 449 0
2019-10-11 10:40:13 GMT 50.177818 8.772583 37,000 189 449 0
2019-10-11 10:40:10 GMT 50.186050 8.774535 37,000 189 449 0
2019-10-11 10:40:06 GMT 50.192596 8.776052 37,000 189 449 0
2019-10-11 10:40:03 GMT 50.198769 8.777557 37,000 189 449 0
2019-10-11 10:40:00 GMT 50.205734 8.779160 37,000 189 449 0
2019-10-11 10:39:56 GMT 50.220474 8.782630 37,025 189 449 0
2019-10-11 10:39:53 GMT 50.220474 8.782630 37,025 189 449 0
2019-10-11 10:39:50 GMT 50.225395 8.783792 37,000 189 449 64
2019-10-11 10:39:47 GMT 50.232330 8.785449 37,000 189 449 64
2019-10-11 10:39:43 GMT 50.240944 8.787429 37,000 189 449 64
2019-10-11 10:39:40 GMT 50.244854 8.788320 37,000 189 449 64
2019-10-11 10:39:37 GMT 50.252609 8.790147 37,000 189 449 64
2019-10-11 10:39:34 GMT 50.258972 8.791665 37,000 189 449 0
2019-10-11 10:39:28 GMT 50.270462 8.794339 37,000 189 449 0
2019-10-11 10:39:25 GMT 50.276825 8.795784 37,000 189 449 0
2019-10-11 10:39:22 GMT 50.288101 8.798416 37,000 189 449 0
2019-10-11 10:39:16 GMT 50.296902 8.800494 37,000 189 449 0
2019-10-11 10:39:13 GMT 50.303463 8.802053 37,000 189 449 0
2019-10-11 10:39:10 GMT 50.309422 8.803463 37,000 189 449 64
2019-10-11 10:39:07 GMT 50.312073 8.804096 37,000 189 449 0
2019-10-11 10:39:04 GMT 50.320686 8.806136 37,000 189 449 64
2019-10-11 10:39:01 GMT 50.326859 8.807566 37,000 189 449 64
2019-10-11 10:38:58 GMT 50.333176 8.809084 36,975 189 449 64
2019-10-11 10:38:52 GMT 50.345490 8.811975 36,975 189 449 0
2019-10-11 10:38:48 GMT 50.351227 8.813262 36,975 189 448 -64
2019-10-11 10:38:44 GMT 50.360229 8.815444 36,975 189 449 0
2019-10-11 10:38:41 GMT 50.366776 8.816962 36,975 189 449 0
2019-10-11 10:38:38 GMT 50.372314 8.818310 36,975 189 449 0
2019-10-11 10:38:35 GMT 50.378036 8.819636 36,975 189 449 -64
2019-10-11 10:38:32 GMT 50.386421 8.821650 36,975 189 449 0
2019-10-11 10:38:28 GMT 50.393417 8.823322 36,975 189 448 0
2019-10-11 10:38:25 GMT 50.399323 8.824696 36,975 189 448 0
2019-10-11 10:38:22 GMT 50.405880 8.826253 36,975 189 448 0
2019-10-11 10:38:19 GMT 50.410995 8.827442 36,975 189 448 -64
2019-10-11 10:38:16 GMT 50.419380 8.829445 36,975 189 448 0
2019-10-11 10:38:12 GMT 50.426548 8.831152 36,975 189 448 -64
2019-10-11 10:38:09 GMT 50.433296 8.832711 36,975 189 448 -64
2019-10-11 10:38:06 GMT 50.438599 8.834020 36,975 189 448 -64
2019-10-11 10:38:03 GMT 50.444752 8.835457 37,000 189 448 -64
2019-10-11 10:38:00 GMT 50.450661 8.836868 37,000 189 448 -64
2019-10-11 10:37:57 GMT 50.457832 8.838575 37,000 189 448 -64
2019-10-11 10:37:54 GMT 50.464161 8.840060 37,000 189 448 0
2019-10-11 10:37:51 GMT 50.468262 8.841031 37,000 189 448 0
2019-10-11 10:37:48 GMT 50.475197 8.842658 37,000 189 448 -64
2019-10-11 10:37:45 GMT 50.483574 8.844662 37,000 189 448 0
2019-10-11 10:37:41 GMT 50.490509 8.846307 37,000 189 448 0
2019-10-11 10:37:38 GMT 50.497868 8.848003 37,000 189 448 0
2019-10-11 10:37:35 GMT 50.502148 8.849042 37,000 189 448 0
2019-10-11 10:37:32 GMT 50.507904 8.850427 37,000 189 448 64
2019-10-11 10:37:29 GMT 50.513184 8.851640 37,000 189 448 64
2019-10-11 10:37:26 GMT 50.521362 8.853607 37,000 189 448 64
2019-10-11 10:37:23 GMT 50.526489 8.854764 37,000 189 449 64
2019-10-11 10:37:20 GMT 50.531982 8.856065 37,000 189 448 0
2019-10-11 10:37:17 GMT 50.538971 8.857727 37,000 189 448 0
2019-10-11 10:37:13 GMT 50.546093 8.859434 37,000 189 448 0
2019-10-11 10:37:10 GMT 50.553040 8.861124 37,000 189 448 0
2019-10-11 10:37:07 GMT 50.560638 8.862931 37,000 189 448 0
2019-10-11 10:37:04 GMT 50.564896 8.863943 37,000 189 448 0
2019-10-11 10:37:01 GMT 50.570625 8.865299 37,000 189 448 0
2019-10-11 10:36:58 GMT 50.578400 8.867123 37,000 189 448 0
2019-10-11 10:36:55 GMT 50.586182 8.869002 37,000 189 448 0
2019-10-11 10:36:52 GMT 50.590088 8.869901 37,000 189 448 0
2019-10-11 10:36:49 GMT 50.597675 8.871683 37,000 189 449 0
2019-10-11 10:36:44 GMT 50.610535 8.874712 37,000 189 448 64
2019-10-11 10:36:38 GMT 50.618546 8.876592 37,000 189 448 64
2019-10-11 10:36:35 GMT 50.624863 8.878110 37,000 189 449 0
2019-10-11 10:36:32 GMT 50.638824 8.881407 36,975 189 449 0
2019-10-11 10:36:28 GMT 50.638824 8.881407 37,000 189 449 0
2019-10-11 10:36:25 GMT 50.644958 8.882880 37,000 189 449 0
2019-10-11 10:36:21 GMT 50.653336 8.884904 37,000 189 449 0
2019-10-11 10:36:18 GMT 50.661346 8.886783 37,000 189 449 0
2019-10-11 10:36:15 GMT 50.666885 8.888156 37,000 189 449 64
2019-10-11 10:36:11 GMT 50.671967 8.889350 37,000 189 449 64
2019-10-11 10:36:08 GMT 50.681396 8.891651 37,000 189 449 0
2019-10-11 10:36:04 GMT 50.696178 8.895187 37,000 189 450 -64
2019-10-11 10:36:01 GMT 50.696178 8.895187 37,000 189 449 0
2019-10-11 10:35:57 GMT 50.702316 8.896625 36,975 189 449 0
2019-10-11 10:35:54 GMT 50.708885 8.898163 37,000 189 449 0
2019-10-11 10:35:51 GMT 50.716846 8.900070 36,975 189 450 0
2019-10-11 10:35:48 GMT 50.729183 8.903046 37,000 189 450 0
2019-10-11 10:35:45 GMT 50.729183 8.903046 37,000 189 450 0
2019-10-11 10:35:42 GMT 50.733093 8.903961 37,000 189 450 0
2019-10-11 10:35:39 GMT 50.746037 8.907089 37,000 189 450 0
2019-10-11 10:35:33 GMT 50.753204 8.908844 37,000 189 450 -64
2019-10-11 10:35:30 GMT 50.757339 8.909764 37,000 189 450 -64
2019-10-11 10:35:27 GMT 50.764702 8.911591 37,000 189 450 -64
2019-10-11 10:35:23 GMT 50.774570 8.913956 37,000 189 450 -64
2019-10-11 10:35:20 GMT 50.778252 8.914871 37,000 189 450 0
2019-10-11 10:35:16 GMT 50.786087 8.916741 37,000 189 451 0
2019-10-11 10:35:13 GMT 50.795105 8.918894 37,000 189 450 0
2019-10-11 10:35:10 GMT 50.799866 8.920008 37,000 187 455 0
2019-10-11 10:35:06 GMT 50.807053 8.921715 37,000 189 451 0
2019-10-11 10:35:03 GMT 50.813004 8.923200 37,000 189 451 0
2019-10-11 10:35:00 GMT 50.819168 8.924637 37,000 189 451 0
2019-10-11 10:34:57 GMT 50.824951 8.926020 37,000 189 451 0
2019-10-11 10:34:54 GMT 50.831505 8.927612 37,000 187 454 0
2019-10-11 10:34:51 GMT 50.836674 8.928833 37,000 189 451 0
2019-10-11 10:34:48 GMT 50.843842 8.930588 37,000 187 454 0
2019-10-11 10:34:45 GMT 50.852268 8.932724 37,000 187 455 0
2019-10-11 10:34:42 GMT 50.856178 8.933640 37,000 189 451 0
2019-10-11 10:34:39 GMT 50.862137 8.935089 37,000 189 451 0
2019-10-11 10:34:35 GMT 50.870819 8.937155 37,000 187 454 64
2019-10-11 10:34:32 GMT 50.878242 8.938828 37,000 188 453 64
2019-10-11 10:34:29 GMT 50.883636 8.939902 37,000 188 453 64
2019-10-11 10:34:26 GMT 50.891785 8.941386 37,000 187 455 0
2019-10-11 10:34:23 GMT 50.896591 8.942203 37,000 187 455 0
2019-10-11 10:34:20 GMT 50.902405 8.943253 37,000 187 455 0
2019-10-11 10:34:17 GMT 50.908676 8.944282 37,000 187 454 0
2019-10-11 10:34:13 GMT 50.915176 8.945395 37,000 187 455 0
2019-10-11 10:34:10 GMT 50.923538 8.946838 37,000 187 454 0
2019-10-11 10:34:07 GMT 50.929173 8.947830 37,000 187 451 0
2019-10-11 10:34:04 GMT 50.936691 8.949181 37,025 187 454 -64
2019-10-11 10:34:01 GMT 50.947746 8.951111 37,000 187 454 -64
2019-10-11 10:33:58 GMT 50.954216 8.952179 37,000 187 454 0
2019-10-11 10:33:55 GMT 50.954216 8.952179 37,000 187 454 0
2019-10-11 10:33:52 GMT 50.962784 8.953709 37,000 187 454 0
2019-10-11 10:33:49 GMT 50.966537 8.954303 37,000 187 454 0
2019-10-11 10:33:46 GMT 50.973038 8.955416 37,000 187 454 64
2019-10-11 10:33:43 GMT 50.978668 8.956381 37,000 187 454 64
2019-10-11 10:33:40 GMT 50.994301 8.959122 37,000 187 454 64
2019-10-11 10:33:37 GMT 50.994301 8.959122 37,000 187 454 0
2019-10-11 10:33:34 GMT 50.998257 8.959732 37,000 187 454 0
2019-10-11 10:33:31 GMT 51.010574 8.961874 37,000 187 452 0
2019-10-11 10:33:28 GMT 51.010574 8.961874 37,000 187 454 -64
2019-10-11 10:33:25 GMT 51.016644 8.962936 37,000 187 454 -64
2019-10-11 10:33:21 GMT 51.025177 8.964398 37,000 187 454 0
2019-10-11 10:33:18 GMT 51.032288 8.965607 37,000 187 453 0
2019-10-11 10:33:15 GMT 51.038544 8.966700 37,000 187 453 0
2019-10-11 10:33:11 GMT 51.047470 8.968258 37,000 187 453 0
2019-10-11 10:33:08 GMT 51.052277 8.969075 37,000 187 451 0
2019-10-11 10:33:05 GMT 51.059334 8.970337 37,000 187 449 0
2019-10-11 10:33:02 GMT 51.065804 8.971481 37,000 187 452 0
2019-10-11 10:32:58 GMT 51.072647 8.972702 37,000 187 451 0
2019-10-11 10:32:55 GMT 51.078873 8.973752 36,975 187 451 0
2019-10-11 10:32:52 GMT 51.086929 8.975236 37,000 187 451 0
2019-10-11 10:32:49 GMT 51.093178 8.976288 37,000 187 451 0
2019-10-11 10:32:46 GMT 51.100018 8.977509 37,000 187 450 0
2019-10-11 10:32:40 GMT 51.112656 8.979764 37,000 187 450 0
2019-10-11 10:32:37 GMT 51.115952 8.980358 37,000 187 450 0
2019-10-11 10:32:33 GMT 51.132660 8.983253 37,000 187 449 0
2019-10-11 10:32:29 GMT 51.132660 8.983253 37,000 187 449 0
2019-10-11 10:32:26 GMT 51.137817 8.984146 37,000 187 449 0
2019-10-11 10:32:23 GMT 51.152893 8.986742 37,000 187 449 0
2019-10-11 10:32:20 GMT 51.152893 8.986742 37,000 187 449 0
2019-10-11 10:32:16 GMT 51.161373 8.988190 37,000 187 449 0
2019-10-11 10:32:13 GMT 51.167336 8.989258 37,000 187 450 0
2019-10-11 10:32:10 GMT 51.174549 8.990555 37,000 187 450 0
2019-10-11 10:32:07 GMT 51.178505 8.991165 37,000 187 450 0
2019-10-11 10:32:04 GMT 51.183861 8.992157 37,000 187 451 64
2019-10-11 10:32:01 GMT 51.190109 8.993200 37,000 187 451 64
2019-10-11 10:31:58 GMT 51.198383 8.994675 37,000 187 449 128
2019-10-11 10:31:55 GMT 51.204575 8.995724 36,975 187 452 64
2019-10-11 10:31:51 GMT 51.213512 8.997269 37,000 187 452 64
2019-10-11 10:31:48 GMT 51.218079 8.998100 36,675 187 450 960
2019-10-11 10:31:45 GMT 51.223892 8.999139 36,975 187 451 0
2019-10-11 10:31:42 GMT 51.232182 9.000549 37,000 187 451 0
2019-10-11 10:31:39 GMT 51.236557 9.001312 36,975 187 449 64
2019-10-11 10:31:36 GMT 51.244812 9.002776 37,000 187 449 128
2019-10-11 10:31:32 GMT 51.252823 9.004187 36,975 187 448 448
2019-10-11 10:31:29 GMT 51.258408 9.005152 36,925 187 449 960
2019-10-11 10:31:25 GMT 51.265793 9.006424 36,925 187 447 576
2019-10-11 10:31:22 GMT 51.273605 9.007750 36,850 187 448 1088
2019-10-11 10:31:19 GMT 51.278965 9.008713 36,800 187 453 960
2019-10-11 10:31:16 GMT 51.284924 9.009705 36,775 187 449 960
2019-10-11 10:31:13 GMT 51.289444 9.010496 36,725 187 448 1024
2019-10-11 10:31:10 GMT 51.298519 9.012070 36,725 187 449 960
2019-10-11 10:31:06 GMT 51.305099 9.013243 36,450 187 449 960
2019-10-11 10:31:03 GMT 51.310062 9.014130 36,575 187 449 960
2019-10-11 10:31:00 GMT 51.316860 9.015274 36,475 187 449 960
2019-10-11 10:30:57 GMT 51.322025 9.016190 36,500 187 450 960
2019-10-11 10:30:54 GMT 51.330734 9.017771 36,425 187 450 960
2019-10-11 10:30:51 GMT 51.335449 9.018588 36,400 187 451 960
2019-10-11 10:30:48 GMT 51.341671 9.019699 36,350 187 450 960
2019-10-11 10:30:45 GMT 51.347260 9.020666 36,250 187 450 960
2019-10-11 10:30:42 GMT 51.355312 9.022141 36,100 187 451 960
2019-10-11 10:30:39 GMT 51.361130 9.023116 36,200 187 451 960
2019-10-11 10:30:36 GMT 51.366718 9.024124 36,075 187 451 960
2019-10-11 10:30:33 GMT 51.371464 9.024963 36,025 187 451 960
2019-10-11 10:30:30 GMT 51.377888 9.026108 36,050 187 451 960
2019-10-11 10:30:27 GMT 51.385151 9.027405 35,925 187 451 960
2019-10-11 10:30:23 GMT 51.395485 9.029236 35,925 187 451 960
2019-10-11 10:30:20 GMT 51.399445 9.029945 35,875 187 451 960
2019-10-11 10:30:17 GMT 51.405441 9.031059 35,825 187 451 960
2019-10-11 10:30:13 GMT 51.422626 9.034195 35,750 187 452 960
2019-10-11 10:30:10 GMT 51.422626 9.034195 35,375 187 453 960
2019-10-11 10:30:07 GMT 51.427841 9.035110 35,675 187 452 960
2019-10-11 10:30:02 GMT 51.436981 9.036700 35,600 187 452 960
2019-10-11 10:29:59 GMT 51.442978 9.037740 35,550 187 453 960
2019-10-11 10:29:56 GMT 51.455887 9.040041 35,475 187 453 960
2019-10-11 10:29:53 GMT 51.455887 9.040041 35,400 187 453 960
2019-10-11 10:29:50 GMT 51.461929 9.041080 35,400 187 453 960
2019-10-11 10:29:47 GMT 51.468155 9.042130 35,300 187 453 960
2019-10-11 10:29:44 GMT 51.474205 9.043198 35,300 187 453 960
2019-10-11 10:29:41 GMT 51.480469 9.044272 35,275 187 453 960
2019-10-11 10:29:38 GMT 51.488777 9.045715 35,200 187 453 960
2019-10-11 10:29:35 GMT 51.494827 9.046783 35,150 187 453 896
2019-10-11 10:29:31 GMT 51.500042 9.047699 35,100 187 453 832
2019-10-11 10:29:28 GMT 51.506886 9.048920 35,025 187 453 832
2019-10-11 10:29:25 GMT 51.513153 9.049988 35,050 187 453 832
2019-10-11 10:29:22 GMT 51.527710 9.052586 34,900 187 451 832
2019-10-11 10:29:19 GMT 51.527710 9.052586 34,950 187 452 576
2019-10-11 10:29:16 GMT 51.532070 9.053421 34,875 187 451 832
2019-10-11 10:29:13 GMT 51.540588 9.054947 34,875 187 451 832
2019-10-11 10:29:10 GMT 51.546597 9.056015 34,800 187 451 832
2019-10-11 10:29:07 GMT 51.551147 9.056817 34,800 187 451 832
2019-10-11 10:29:04 GMT 51.557346 9.057999 34,750 187 450 832
2019-10-11 10:29:00 GMT 51.565201 9.059415 34,675 187 450 896
2019-10-11 10:28:57 GMT 51.572060 9.060669 34,600 187 450 896
2019-10-11 10:28:54 GMT 51.577644 9.061661 34,600 187 450 896
2019-10-11 10:28:50 GMT 51.593124 9.064463 34,500 187 450 960
2019-10-11 10:28:47 GMT 51.593124 9.064463 34,450 187 450 1024
2019-10-11 10:28:44 GMT 51.598709 9.065502 34,425 187 450 960
2019-10-11 10:28:41 GMT 51.606136 9.066772 34,325 187 450 1024
2019-10-11 10:28:37 GMT 51.612930 9.067993 34,325 187 450 1088
2019-10-11 10:28:34 GMT 51.620819 9.069437 34,275 187 450 1088
2019-10-11 10:28:31 GMT 51.632812 9.071515 34,175 187 450 1280
2019-10-11 10:28:28 GMT 51.638165 9.072418 34,150 188 449 1216
2019-10-11 10:28:22 GMT 51.646454 9.073890 34,000 188 449 1216
2019-10-11 10:28:19 GMT 51.649567 9.074554 33,975 189 447 1152
2019-10-11 10:28:16 GMT 51.655289 9.075746 33,925 189 447 1152
2019-10-11 10:28:13 GMT 51.664326 9.077911 33,750 191 445 1088
2019-10-11 10:28:07 GMT 51.676849 9.081573 33,700 200 444 1728
2019-10-11 10:28:03 GMT 51.685040 9.084396 33,675 194 441 1088
2019-10-11 10:28:00 GMT 51.695526 9.088514 33,325 196 438 960
2019-10-11 10:27:57 GMT 51.695526 9.088514 33,550 196 437 960
2019-10-11 10:27:54 GMT 51.700638 9.090729 33,500 197 436 832
2019-10-11 10:27:51 GMT 51.707806 9.094009 33,475 198 432 704
2019-10-11 10:27:47 GMT 51.715672 9.097900 33,425 199 431 704
2019-10-11 10:27:44 GMT 51.720612 9.100540 33,400 199 431 768
2019-10-11 10:27:41 GMT 51.725143 9.102989 33,375 200 430 768
2019-10-11 10:27:38 GMT 51.730385 9.105911 33,350 200 430 832
2019-10-11 10:27:35 GMT 51.743317 9.113159 33,250 200 429 1024
2019-10-11 10:27:32 GMT 51.743317 9.113159 33,225 200 429 1024
2019-10-11 10:27:29 GMT 51.748032 9.115832 33,175 200 429 1152
2019-10-11 10:27:26 GMT 51.753613 9.118958 33,050 200 430 1344
2019-10-11 10:27:23 GMT 51.760391 9.122735 33,025 200 430 1408
2019-10-11 10:27:20 GMT 51.764133 9.124832 33,025 200 430 1408
2019-10-11 10:27:17 GMT 51.771812 9.129181 32,825 200 431 1472
2019-10-11 10:27:14 GMT 51.777260 9.132233 32,800 200 435 1728
2019-10-11 10:27:11 GMT 51.783825 9.135971 32,750 200 431 1472
2019-10-11 10:27:08 GMT 51.788132 9.138472 32,675 200 433 1664
2019-10-11 10:27:02 GMT 51.800396 9.145432 32,300 200 435 1728
2019-10-11 10:26:59 GMT 51.803612 9.147263 32,450 200 435 1728
2019-10-11 10:26:56 GMT 51.815712 9.154205 31,800 200 439 1024
2019-10-11 10:26:53 GMT 51.821205 9.157410 32,225 200 436 1600
2019-10-11 10:26:46 GMT 51.831074 9.163132 32,075 200 437 1408
2019-10-11 10:26:43 GMT 51.835464 9.165641 32,000 200 439 1152
2019-10-11 10:26:40 GMT 51.841736 9.169279 31,950 200 439 1088
2019-10-11 10:26:37 GMT 51.846298 9.171982 31,300 200 440 1536
2019-10-11 10:26:34 GMT 51.850719 9.174500 31,850 200 439 1024
2019-10-11 10:26:31 GMT 51.857941 9.178706 31,775 200 439 1088
2019-10-11 10:26:27 GMT 51.867477 9.184265 31,750 200 439 1088
2019-10-11 10:26:24 GMT 51.871483 9.186630 31,425 200 440 1600
2019-10-11 10:26:21 GMT 51.875484 9.188919 31,600 200 439 1280
2019-10-11 10:26:18 GMT 51.883118 9.193404 31,525 200 440 1536
2019-10-11 10:26:14 GMT 51.890533 9.197784 31,350 200 441 1600
2019-10-11 10:26:11 GMT 51.894562 9.200134 31,000 201 440 1600
2019-10-11 10:26:08 GMT 51.910629 9.209595 31,175 200 441 1664
2019-10-11 10:26:04 GMT 51.910629 9.209595 30,200 200 445 1664
2019-10-11 10:26:01 GMT 51.920780 9.215489 31,050 200 443 1728
2019-10-11 10:25:58 GMT 51.920780 9.215489 30,675 201 446 1472
2019-10-11 10:25:55 GMT 51.926556 9.218942 30,850 200 444 1728
2019-10-11 10:25:52 GMT 51.931595 9.221878 30,725 200 445 1664
2019-10-11 10:25:49 GMT 51.938324 9.225845 30,750 200 445 1664
2019-10-11 10:25:46 GMT 51.944153 9.229222 30,650 201 446 1408
2019-10-11 10:25:43 GMT 51.950157 9.232753 30,325 201 446 1088
2019-10-11 10:25:40 GMT 51.956905 9.236755 30,525 201 446 1088
2019-10-11 10:25:37 GMT 51.961746 9.239580 30,475 201 446 1088
2019-10-11 10:25:34 GMT 51.966751 9.242554 30,100 201 446 1088
2019-10-11 10:25:31 GMT 51.978745 9.249649 30,325 201 446 1152
2019-10-11 10:25:28 GMT 51.978745 9.249649 30,275 201 446 1216
2019-10-11 10:25:25 GMT 51.984558 9.253078 30,175 201 446 1344
2019-10-11 10:25:22 GMT 51.989365 9.255905 30,175 201 446 1344
2019-10-11 10:25:19 GMT 52.002136 9.263535 30,050 201 446 1472
2019-10-11 10:25:16 GMT 52.002136 9.263535 30,000 201 447 1536
2019-10-11 10:25:12 GMT 52.015320 9.271393 29,875 201 448 1664
2019-10-11 10:25:09 GMT 52.023651 9.276352 29,825 201 448 1664
2019-10-11 10:25:06 GMT 52.023651 9.276352 29,750 201 448 1600
2019-10-11 10:25:03 GMT 52.028137 9.279022 29,700 201 449 1536
2019-10-11 10:25:00 GMT 52.032028 9.281311 29,050 201 450 1088
2019-10-11 10:24:57 GMT 52.039032 9.285507 29,500 201 450 1216
2019-10-11 10:24:53 GMT 52.046844 9.290196 29,450 201 450 1088
2019-10-11 10:24:50 GMT 52.060730 9.298401 29,375 201 450 704
2019-10-11 10:24:47 GMT 52.060730 9.298401 29,350 201 449 704
2019-10-11 10:24:43 GMT 52.066772 9.301987 29,300 201 449 640
2019-10-11 10:24:40 GMT 52.073639 9.306030 29,275 201 449 576
2019-10-11 10:24:35 GMT 52.082932 9.311600 29,225 201 447 768
2019-10-11 10:24:32 GMT 52.089535 9.315543 29,175 201 447 960
2019-10-11 10:24:29 GMT 52.092453 9.317245 29,150 201 446 1088
2019-10-11 10:24:26 GMT 52.099640 9.321518 28,975 201 446 1216
2019-10-11 10:24:22 GMT 52.107178 9.326059 28,925 201 448 1600
2019-10-11 10:24:19 GMT 52.114929 9.330750 27,775 191 460 1280
2019-10-11 10:24:16 GMT 52.118999 9.333200 28,525 195 459 1216
2019-10-11 10:24:13 GMT 52.125229 9.336853 28,775 200 450 1600
2019-10-11 10:24:10 GMT 52.131104 9.340262 28,650 199 451 1536
2019-10-11 10:24:07 GMT 52.136040 9.342930 28,475 196 458 1344
2019-10-11 10:24:04 GMT 52.140835 9.345442 28,550 197 457 1408
2019-10-11 10:24:01 GMT 52.149960 9.349758 28,400 194 462 1024
2019-10-11 10:23:57 GMT 52.155670 9.352264 28,375 194 462 960
2019-10-11 10:23:54 GMT 52.162296 9.354858 28,250 192 464 896
2019-10-11 10:23:51 GMT 52.168301 9.357134 28,275 191 462 640
2019-10-11 10:23:48 GMT 52.175236 9.359410 28,225 192 464 896
2019-10-11 10:23:45 GMT 52.181751 9.361529 28,150 192 458 896
2019-10-11 10:23:42 GMT 52.188271 9.363569 28,175 191 463 704
2019-10-11 10:23:39 GMT 52.196228 9.366074 28,100 191 461 704
2019-10-11 10:23:36 GMT 52.201260 9.367650 28,075 191 461 704
2019-10-11 10:23:33 GMT 52.205448 9.368984 28,025 192 460 832
2019-10-11 10:23:30 GMT 52.214012 9.371730 28,000 192 460 896
2019-10-11 10:23:27 GMT 52.218613 9.373169 27,825 191 460 1280
2019-10-11 10:23:24 GMT 52.233215 9.377747 27,900 191 460 1088
2019-10-11 10:23:21 GMT 52.233215 9.377747 27,850 191 460 1152
2019-10-11 10:23:18 GMT 52.238022 9.379272 27,775 191 460 1280
2019-10-11 10:23:15 GMT 52.245529 9.381618 27,725 191 460 1280
2019-10-11 10:23:12 GMT 52.250931 9.383316 27,675 191 460 1280
2019-10-11 10:23:09 GMT 52.256973 9.385223 27,000 192 454 768
2019-10-11 10:23:06 GMT 52.265121 9.387817 27,500 192 460 1344
2019-10-11 10:23:03 GMT 52.269272 9.389151 27,425 192 460 1216
2019-10-11 10:23:00 GMT 52.275970 9.391251 27,350 192 459 1024
2019-10-11 10:22:56 GMT 52.284073 9.393845 27,175 192 458 960
2019-10-11 10:22:53 GMT 52.295975 9.397583 27,275 192 458 832
2019-10-11 10:22:50 GMT 52.295975 9.397583 27,225 192 458 832
2019-10-11 10:22:47 GMT 52.302605 9.399667 27,225 192 458 960
2019-10-11 10:22:44 GMT 52.308014 9.401398 26,150 192 449 896
2019-10-11 10:22:41 GMT 52.313599 9.403152 27,100 191 456 832
2019-10-11 10:22:38 GMT 52.322891 9.406128 27,075 192 455 704
2019-10-11 10:22:35 GMT 52.327240 9.407501 27,025 192 454 768
2019-10-11 10:22:32 GMT 52.333649 9.409561 27,025 192 450 896
2019-10-11 10:22:28 GMT 52.341660 9.412079 26,925 192 453 960
2019-10-11 10:22:25 GMT 52.346783 9.413714 26,875 192 452 1024
2019-10-11 10:22:22 GMT 52.354385 9.416122 26,850 192 449 960
2019-10-11 10:22:19 GMT 52.360336 9.418030 26,725 192 452 1088
2019-10-11 10:22:16 GMT 52.373245 9.422150 26,700 192 450 960
2019-10-11 10:22:13 GMT 52.373245 9.422150 26,675 192 449 896
2019-10-11 10:22:09 GMT 52.382439 9.425171 26,625 192 450 896
2019-10-11 10:22:05 GMT 52.388947 9.427261 26,550 192 449 960
2019-10-11 10:22:02 GMT 52.396267 9.429565 26,500 192 449 960
2019-10-11 10:21:59 GMT 52.408081 9.433365 26,400 192 448 1088
2019-10-11 10:21:56 GMT 52.408081 9.433365 26,375 192 448 1088
2019-10-11 10:21:53 GMT 52.415585 9.435765 26,350 192 448 1152
2019-10-11 10:21:50 GMT 52.421860 9.437790 26,250 192 446 960
2019-10-11 10:21:47 GMT 52.425129 9.438825 26,250 192 447 1152
2019-10-11 10:21:44 GMT 52.431179 9.440709 26,200 192 447 1024
2019-10-11 10:21:41 GMT 52.438477 9.443054 26,150 192 445 960
2019-10-11 10:21:38 GMT 52.450825 9.447065 26,050 192 445 960
2019-10-11 10:21:35 GMT 52.450825 9.447065 26,025 192 443 896
2019-10-11 10:21:32 GMT 52.456642 9.448948 26,000 192 443 896
2019-10-11 10:21:29 GMT 52.461502 9.450455 25,975 192 443 896
2019-10-11 10:21:26 GMT 52.469330 9.452972 25,900 192 442 896
2019-10-11 10:21:23 GMT 52.481548 9.456953 25,850 192 439 896
2019-10-11 10:21:20 GMT 52.481548 9.456953 25,800 192 441 896
2019-10-11 10:21:17 GMT 52.485352 9.458160 25,675 192 437 1664
2019-10-11 10:21:14 GMT 52.493317 9.460754 25,750 192 439 896
2019-10-11 10:21:11 GMT 52.497097 9.461975 25,700 192 439 960
2019-10-11 10:21:07 GMT 52.507248 9.465193 25,600 192 438 1152
2019-10-11 10:21:04 GMT 52.511215 9.466476 25,575 192 437 1280
2019-10-11 10:21:01 GMT 52.517162 9.468410 25,525 192 437 1280
2019-10-11 10:20:57 GMT 52.525497 9.471054 25,400 192 437 1472
2019-10-11 10:20:54 GMT 52.531998 9.473190 25,325 192 435 1280
2019-10-11 10:20:51 GMT 52.547283 9.478062 25,150 192 437 1600
2019-10-11 10:20:46 GMT 52.547283 9.478062 25,075 192 437 1536
2019-10-11 10:20:43 GMT 52.555389 9.480743 25,025 192 437 1280
2019-10-11 10:20:40 GMT 52.559525 9.482064 24,975 192 437 1280
2019-10-11 10:20:37 GMT 52.564682 9.483719 24,900 192 436 1280
2019-10-11 10:20:34 GMT 52.570816 9.485703 24,850 192 436 1280
2019-10-11 10:20:31 GMT 52.578506 9.488144 24,775 192 435 1280
2019-10-11 10:20:28 GMT 52.583038 9.489594 24,550 192 435 1280
2019-10-11 10:20:22 GMT 52.596863 9.494019 24,575 192 434 1280
2019-10-11 10:20:19 GMT 52.600754 9.495316 24,525 192 433 1344
2019-10-11 10:20:15 GMT 52.608444 9.497757 24,400 192 433 1472
2019-10-11 10:20:12 GMT 52.614735 9.499799 24,375 192 433 1472
2019-10-11 10:20:09 GMT 52.622589 9.502258 24,300 192 433 1472
2019-10-11 10:20:05 GMT 52.627075 9.503708 24,200 192 432 1152
2019-10-11 10:20:02 GMT 52.634148 9.505999 24,075 192 431 1152
2019-10-11 10:19:59 GMT 52.639984 9.507904 23,975 192 431 1088
2019-10-11 10:19:55 GMT 52.647415 9.510315 23,100 192 412 704
2019-10-11 10:19:52 GMT 52.654633 9.512591 23,925 192 428 1152
2019-10-11 10:19:48 GMT 52.660637 9.514553 23,875 192 427 1216
2019-10-11 10:19:45 GMT 52.667633 9.516830 23,825 191 424 1088
2019-10-11 10:19:42 GMT 52.673485 9.518712 23,700 192 426 1280
2019-10-11 10:19:39 GMT 52.684296 9.522171 23,650 192 426 1344
2019-10-11 10:19:33 GMT 52.692398 9.524765 23,500 191 424 960
2019-10-11 10:19:29 GMT 52.697598 9.526481 23,500 191 424 1024
2019-10-11 10:19:26 GMT 52.708969 9.530106 23,400 192 421 832
2019-10-11 10:19:20 GMT 52.715652 9.532242 23,350 191 420 896
2019-10-11 10:19:17 GMT 52.721386 9.534092 23,300 192 415 960
2019-10-11 10:19:13 GMT 52.728230 9.536290 23,250 192 417 1088
2019-10-11 10:19:10 GMT 52.735245 9.538498 23,175 192 415 960
2019-10-11 10:19:07 GMT 52.741653 9.540634 23,100 192 416 1024
2019-10-11 10:19:03 GMT 52.754471 9.544754 23,050 192 414 768
2019-10-11 10:19:00 GMT 52.754471 9.544754 23,025 192 412 704
2019-10-11 10:18:56 GMT 52.762115 9.547272 22,925 192 409 512
2019-10-11 10:18:52 GMT 52.769756 9.549787 22,925 192 408 576
2019-10-11 10:18:48 GMT 52.780472 9.553299 22,925 192 405 576
2019-10-11 10:18:45 GMT 52.780472 9.553299 22,800 192 402 576
2019-10-11 10:18:41 GMT 52.789074 9.556065 22,875 192 402 576
2019-10-11 10:18:38 GMT 52.793243 9.557495 22,825 192 401 576
2019-10-11 10:18:35 GMT 52.800526 9.559832 22,800 192 396 576
2019-10-11 10:18:31 GMT 52.806484 9.561794 22,775 192 396 576
2019-10-11 10:18:28 GMT 52.811699 9.563520 22,725 192 394 704
2019-10-11 10:18:25 GMT 52.823105 9.567287 22,650 192 391 960
2019-10-11 10:18:19 GMT 52.828598 9.569013 22,475 192 388 1344
2019-10-11 10:18:16 GMT 52.833893 9.570770 22,500 192 387 1280
2019-10-11 10:18:13 GMT 52.837906 9.572152 22,450 192 388 1344
2019-10-11 10:18:10 GMT 52.843399 9.573957 22,400 192 387 1280
2019-10-11 10:18:07 GMT 52.850052 9.576111 22,275 192 385 1344
2019-10-11 10:18:04 GMT 52.855270 9.577881 22,225 192 384 1536
2019-10-11 10:18:01 GMT 52.861542 9.579926 22,075 192 380 1664
2019-10-11 10:17:58 GMT 52.864536 9.580941 22,100 192 383 1600
2019-10-11 10:17:55 GMT 52.869564 9.582589 22,025 192 383 1536
2019-10-11 10:17:52 GMT 52.875290 9.584394 21,900 192 381 1536
2019-10-11 10:17:49 GMT 52.887020 9.588239 21,825 192 380 1536
2019-10-11 10:17:46 GMT 52.887020 9.588239 21,725 192 380 1664
2019-10-11 10:17:42 GMT 52.892372 9.589966 21,625 192 379 2048
2019-10-11 10:17:39 GMT 52.898380 9.591928 21,525 192 379 2240
2019-10-11 10:17:36 GMT 52.902328 9.593277 21,250 192 380 2304
2019-10-11 10:17:33 GMT 52.907684 9.594955 21,300 192 380 2304
2019-10-11 10:17:30 GMT 52.917297 9.598083 19,900 192 380 2240
2019-10-11 10:17:24 GMT 52.924026 9.600296 21,000 192 380 2176
2019-10-11 10:17:21 GMT 52.928497 9.601737 20,850 192 380 2240
2019-10-11 10:17:18 GMT 52.933502 9.603348 20,725 192 380 2304
2019-10-11 10:17:15 GMT 52.939178 9.605179 20,575 192 380 2304
2019-10-11 10:17:12 GMT 52.950703 9.608956 20,475 192 380 2048
2019-10-11 10:17:09 GMT 52.950703 9.608956 20,400 192 380 2048
2019-10-11 10:17:06 GMT 52.959316 9.611782 20,275 192 379 1792
2019-10-11 10:17:03 GMT 52.959316 9.611782 20,150 192 378 1792
2019-10-11 10:16:59 GMT 52.967560 9.614563 20,100 192 377 1536
2019-10-11 10:16:56 GMT 52.971817 9.615936 20,000 192 376 1344
2019-10-11 10:16:53 GMT 52.976448 9.617510 19,975 192 375 1280
2019-10-11 10:16:50 GMT 52.987617 9.621198 19,875 192 372 1088
2019-10-11 10:16:47 GMT 52.987617 9.621198 19,775 192 372 1024
2019-10-11 10:16:41 GMT 52.998230 9.624710 19,750 192 368 1408
2019-10-11 10:16:38 GMT 53.002396 9.626083 19,675 192 368 1472
2019-10-11 10:16:35 GMT 53.006058 9.627304 19,575 192 366 1856
2019-10-11 10:16:32 GMT 53.011551 9.629059 18,025 192 371 2112
2019-10-11 10:16:29 GMT 53.018372 9.631271 19,325 192 366 2432
2019-10-11 10:16:26 GMT 53.022491 9.632645 18,300 192 366 1280
2019-10-11 10:16:23 GMT 53.027664 9.634323 19,000 192 368 3264
2019-10-11 10:16:20 GMT 53.031982 9.635716 18,800 192 369 3200
2019-10-11 10:16:17 GMT 53.037003 9.637375 18,750 192 371 2752
2019-10-11 10:16:14 GMT 53.041672 9.638901 18,550 192 371 2944
2019-10-11 10:16:11 GMT 53.046696 9.640503 18,550 192 371 2880
2019-10-11 10:16:08 GMT 53.051743 9.642181 18,375 192 371 2368
2019-10-11 10:16:05 GMT 53.056797 9.643877 18,200 192 371 1920
2019-10-11 10:16:02 GMT 53.061871 9.645525 18,175 192 370 1792
2019-10-11 10:15:59 GMT 53.067398 9.647369 18,075 192 369 1600
2019-10-11 10:15:56 GMT 53.072754 9.649124 17,850 192 366 1280
2019-10-11 10:15:53 GMT 53.077240 9.650650 17,925 192 366 1280
2019-10-11 10:15:50 GMT 53.082214 9.652274 17,825 192 362 1216
2019-10-11 10:15:47 GMT 53.088501 9.654388 17,800 192 361 1216
2019-10-11 10:15:44 GMT 53.093216 9.655991 17,700 192 360 1216
2019-10-11 10:15:41 GMT 53.097015 9.657225 17,675 192 358 1280
2019-10-11 10:15:37 GMT 53.103348 9.659325 17,550 192 355 1536
2019-10-11 10:15:34 GMT 53.113312 9.662637 17,400 192 354 2048
2019-10-11 10:15:31 GMT 53.113312 9.662637 17,225 192 354 2176
2019-10-11 10:15:28 GMT 53.117500 9.664010 17,225 192 353 2496
2019-10-11 10:15:25 GMT 53.123737 9.666111 17,150 192 353 2688
2019-10-11 10:15:22 GMT 53.127743 9.667403 17,050 192 353 2752
2019-10-11 10:15:19 GMT 53.136749 9.670401 16,775 192 353 2560
2019-10-11 10:15:16 GMT 53.136749 9.670401 16,725 192 353 2368
2019-10-11 10:15:13 GMT 53.141693 9.672049 16,650 192 353 2240
2019-10-11 10:15:10 GMT 53.147003 9.673854 16,525 192 353 2048
2019-10-11 10:15:07 GMT 53.153549 9.676052 16,400 192 352 1856
2019-10-11 10:15:04 GMT 53.157532 9.677386 16,125 192 351 1728
2019-10-11 10:15:01 GMT 53.161377 9.678641 16,225 192 345 2176
2019-10-11 10:14:58 GMT 53.171314 9.682025 16,100 192 347 1856
2019-10-11 10:14:52 GMT 53.174759 9.683156 15,925 192 345 2240
2019-10-11 10:14:49 GMT 53.179504 9.684684 15,725 192 345 2304
2019-10-11 10:14:46 GMT 53.184036 9.686253 15,775 192 344 2304
2019-10-11 10:14:43 GMT 53.189655 9.688083 15,625 192 344 2496
2019-10-11 10:14:39 GMT 53.195572 9.690098 15,400 192 343 2752
2019-10-11 10:14:36 GMT 53.200085 9.691557 15,325 192 344 2944
2019-10-11 10:14:33 GMT 53.205391 9.693334 15,050 192 344 3008
2019-10-11 10:14:30 GMT 53.211319 9.695278 14,975 192 344 3008
2019-10-11 10:14:23 GMT 53.221638 9.698747 14,725 192 345 2816
2019-10-11 10:14:20 GMT 53.229782 9.701493 14,350 192 344 2688
2019-10-11 10:14:14 GMT 53.234440 9.703028 14,175 192 343 2304
2019-10-11 10:14:11 GMT 53.238674 9.704401 14,175 192 343 2368
2019-10-11 10:14:08 GMT 53.245193 9.706582 14,100 192 343 2304
2019-10-11 10:14:05 GMT 53.248489 9.707676 13,925 192 341 2496
2019-10-11 10:14:01 GMT 53.254364 9.709652 13,775 192 341 2752
2019-10-11 10:13:58 GMT 53.259613 9.711365 13,575 192 341 2944
2019-10-11 10:13:55 GMT 53.264420 9.712934 13,225 191 342 3392
2019-10-11 10:13:52 GMT 53.272797 9.715681 13,175 191 343 3520
2019-10-11 10:13:45 GMT 53.279968 9.717973 12,775 192 348 3904
2019-10-11 10:13:42 GMT 53.285294 9.719683 12,500 192 347 4032
2019-10-11 10:13:39 GMT 53.288773 9.720860 12,450 192 348 3904
2019-10-11 10:13:36 GMT 53.292709 9.722116 12,325 192 349 3584
2019-10-11 10:13:33 GMT 53.298401 9.723951 12,125 192 350 3072
2019-10-11 10:13:30 GMT 53.304794 9.726039 11,975 192 350 2688
2019-10-11 10:13:27 GMT 53.311764 9.728394 11,600 192 346 1920
2019-10-11 10:13:20 GMT 53.323883 9.732396 11,550 192 342 1408
2019-10-11 10:13:17 GMT 53.328735 9.734044 11,475 192 342 1472
2019-10-11 10:13:14 GMT 53.328735 9.734044 11,450 192 340 1280
2019-10-11 10:13:11 GMT 53.333817 9.735692 11,375 192 340 1152
2019-10-11 10:13:08 GMT 53.338436 9.737280 11,350 192 336 896
2019-10-11 10:13:05 GMT 53.343742 9.738976 11,300 192 332 896
2019-10-11 10:13:02 GMT 53.346584 9.739945 11,275 192 328 896
2019-10-11 10:12:59 GMT 53.353008 9.742046 11,150 192 322 896
2019-10-11 10:12:56 GMT 53.355972 9.743068 11,150 192 320 896
2019-10-11 10:12:52 GMT 53.361465 9.744873 10,950 192 312 960
2019-10-11 10:12:49 GMT 53.366646 9.746650 11,050 192 312 1024
2019-10-11 10:12:46 GMT 53.371445 9.748247 10,975 192 306 960
2019-10-11 10:12:43 GMT 53.373585 9.748993 10,975 192 306 960
2019-10-11 10:12:40 GMT 53.380241 9.751255 10,900 192 300 960
2019-10-11 10:12:34 GMT 53.385910 9.753191 10,825 192 296 960
2019-10-11 10:12:31 GMT 53.390579 9.754761 10,775 192 291 960
2019-10-11 10:12:28 GMT 53.395477 9.756487 10,700 192 285 960
2019-10-11 10:12:24 GMT 53.400864 9.758364 10,650 192 280 960
2019-10-11 10:12:21 GMT 53.403934 9.759414 10,575 192 274 960
2019-10-11 10:12:18 GMT 53.411385 9.761999 10,500 192 269 1152
2019-10-11 10:12:15 GMT 53.411385 9.761999 10,475 192 267 1408
2019-10-11 10:12:12 GMT 53.415298 9.763314 10,425 192 266 1664
2019-10-11 10:12:09 GMT 53.419510 9.764805 10,300 192 263 2176
2019-10-11 10:12:06 GMT 53.423447 9.766061 10,275 192 263 2304
2019-10-11 10:12:03 GMT 53.425598 9.766846 10,100 192 261 2816
2019-10-11 10:12:00 GMT 53.429352 9.768057 9,925 192 261 2816
2019-10-11 10:11:57 GMT 53.432796 9.769269 9,850 192 260 2816
2019-10-11 10:11:54 GMT 53.437042 9.770691 9,700 192 258 2752
2019-10-11 10:11:51 GMT 53.439148 9.771397 9,550 192 259 2816
2019-10-11 10:11:48 GMT 53.443970 9.772985 9,375 192 258 2752
2019-10-11 10:11:45 GMT 53.446426 9.773830 9,200 192 257 2688
2019-10-11 10:11:42 GMT 53.450958 9.775399 9,050 192 256 2688
2019-10-11 10:11:39 GMT 53.453979 9.776378 9,000 192 255 2752
2019-10-11 10:11:35 GMT 53.458603 9.777989 8,825 192 254 2752
2019-10-11 10:11:32 GMT 53.462498 9.779286 8,650 192 252 2752
2019-10-11 10:11:27 GMT 53.467300 9.780971 8,425 192 252 2880
2019-10-11 10:11:24 GMT 53.471901 9.782517 8,225 192 250 3008
2019-10-11 10:11:21 GMT 53.474716 9.783404 8,175 192 250 3136
2019-10-11 10:11:18 GMT 53.477676 9.784456 8,075 192 250 3264
2019-10-11 10:11:15 GMT 53.481911 9.785829 7,775 192 250 3328
2019-10-11 10:11:12 GMT 53.485867 9.787122 7,600 192 250 2944
2019-10-11 10:11:09 GMT 53.488403 9.787955 7,475 191 250 2752
2019-10-11 10:11:06 GMT 53.491333 9.788897 7,325 191 250 2432
2019-10-11 10:11:03 GMT 53.498383 9.791173 7,125 191 251 1920
2019-10-11 10:10:57 GMT 53.500992 9.791957 7,075 191 252 1536
2019-10-11 10:10:54 GMT 53.505840 9.793504 7,000 191 253 1088
2019-10-11 10:10:51 GMT 53.509052 9.794554 6,950 192 254 640
2019-10-11 10:10:48 GMT 53.511612 9.795332 6,900 192 254 896
2019-10-11 10:10:45 GMT 53.515522 9.796654 6,875 192 254 896
2019-10-11 10:10:41 GMT 53.520355 9.798314 6,800 193 254 1280
2019-10-11 10:10:38 GMT 53.524155 9.799726 6,650 195 253 1664
2019-10-11 10:10:35 GMT 53.527161 9.800936 6,600 196 253 1792
2019-10-11 10:10:32 GMT 53.530930 9.802630 3,925 231 229 2688
2019-10-11 10:10:28 GMT 53.536098 9.805783 6,400 205 246 2368
2019-10-11 10:10:25 GMT 53.541916 9.811195 6,100 215 239 2944
2019-10-11 10:10:22 GMT 53.541916 9.811195 6,025 220 238 3200
2019-10-11 10:10:19 GMT 53.544010 9.813780 5,925 221 236 3328
2019-10-11 10:10:16 GMT 53.545807 9.816206 5,800 224 236 3392
2019-10-11 10:10:13 GMT 53.548553 9.820679 5,650 228 235 3456
2019-10-11 10:10:10 GMT 53.551460 9.826140 5,000 231 236 3520
2019-10-11 10:10:07 GMT 53.553131 9.829546 5,225 231 236 3456
2019-10-11 10:10:04 GMT 53.555229 9.833814 5,050 231 236 3392
2019-10-11 10:10:01 GMT 53.557232 9.837853 4,850 231 235 3328
2019-10-11 10:09:58 GMT 53.559235 9.841973 4,600 231 235 3264
2019-10-11 10:09:55 GMT 53.561234 9.846104 4,550 231 235 3264
2019-10-11 10:09:52 GMT 53.562973 9.849636 4,450 231 234 3264
2019-10-11 10:09:49 GMT 53.565674 9.855129 4,225 231 233 3264
2019-10-11 10:09:43 GMT 53.569931 9.863761 3,900 231 233 3200
2019-10-11 10:09:39 GMT 53.572781 9.869600 3,625 231 231 3008
2019-10-11 10:09:36 GMT 53.574554 9.873256 3,550 231 230 2880
2019-10-11 10:09:33 GMT 53.576458 9.877113 3,425 231 229 2560
2019-10-11 10:09:30 GMT 53.578491 9.881260 3,325 231 227 2368
2019-10-11 10:09:27 GMT 53.580048 9.884556 3,225 231 223 2112
2019-10-11 10:09:23 GMT 53.583115 9.890927 3,025 231 218 1856
2019-10-11 10:09:20 GMT 53.585037 9.894836 3,025 231 215 1728
2019-10-11 10:09:17 GMT 53.586887 9.898762 2,900 231 208 1536
2019-10-11 10:09:13 GMT 53.588791 9.902684 2,800 231 203 1600
2019-10-11 10:09:10 GMT 53.590897 9.907000 2,750 231 201 1600
2019-10-11 10:09:07 GMT 53.592983 9.911284 2,625 231 193 1600
2019-10-11 10:09:03 GMT 53.595078 9.915646 2,475 231 188 1472
2019-10-11 10:08:59 GMT 53.597221 9.920089 2,450 231 183 1024
2019-10-11 10:08:56 GMT 53.598618 9.922916 2,425 231 179 768
2019-10-11 10:08:53 GMT 53.602436 9.930752 2,375 231 166 896
2019-10-11 10:08:50 GMT 53.602436 9.930752 2,325 231 164 1152
2019-10-11 10:08:47 GMT 53.603439 9.932818 2,275 231 159 1344
2019-10-11 10:08:44 GMT 53.606392 9.938830 2,175 231 155 1408
2019-10-11 10:08:41 GMT 53.606392 9.938830 2,150 231 154 1344
2019-10-11 10:08:38 GMT 53.607414 9.940931 2,050 231 149 1408
2019-10-11 10:08:35 GMT 53.608978 9.944039 2,025 231 146 1408
2019-10-11 10:08:31 GMT 53.610954 9.948120 1,900 231 142 1536
2019-10-11 10:08:28 GMT 53.611977 9.950220 1,825 231 139 1536
2019-10-11 10:08:22 GMT 53.614353 9.954987 1,700 231 134 1536
2019-10-11 10:08:18 GMT 53.615845 9.958008 1,550 231 131 2176
2019-10-11 10:08:15 GMT 53.618217 9.962984 1,450 231 130 2624
2019-10-11 10:08:12 GMT 53.618217 9.962984 1,300 232 133 3264
2019-10-11 10:08:09 GMT 53.620560 9.967817 1,025 232 136 2880
2019-10-11 10:08:06 GMT 53.621708 9.970335 875 232 137 2688
2019-10-11 10:08:03 GMT 53.621708 9.970335 625 232 138 2752
2019-10-11 10:08:00 GMT 53.623077 9.973232 650 232 138 2688
2019-10-11 10:07:55 GMT 53.624641 9.976555 500 232 140 2752
2019-10-11 10:07:52 GMT 53.626129 9.979706 225 231 143 2112
2019-10-11 10:07:33 GMT 53.633423 9.994420 200 230 102 64
2019-10-11 10:07:30 GMT 53.633972 9.995518 200 230 81 0
2019-10-11 10:07:23 GMT 53.635620 9.998893 0 230 46
2019-10-11 10:07:16 GMT 53.636364 10.000384 0 230 15
2019-10-11 10:07:10 GMT 53.636513 10.000678 0 230 0
2019-10-11 10:06:54 GMT 53.636501 10.000678 0 230 3
2019-10-11 10:06:45 GMT 53.636662 10.000931 0 250 9
2019-10-11 10:06:36 GMT 53.636719 10.001416 0 306 9
2019-10-11 10:06:25 GMT 53.636364 10.002012 0 320 9
2019-10-11 10:06:17 GMT 53.636150 10.002305 0 320 8
2019-10-11 10:06:09 GMT 53.635929 10.002607 0 329 7
2019-10-11 10:05:59 GMT 53.635677 10.002875 0 0 6
2019-10-11 10:05:49 GMT 53.635406 10.002850 0 36 6
2019-10-11 10:05:37 GMT 53.635197 10.002527 0 42 8
2019-10-11 10:05:27 GMT 53.634834 10.002183 0 357 8
2019-10-11 10:05:19 GMT 53.634556 10.002208 0 354 9
2019-10-11 10:04:56 GMT 53.633041 10.002385 0 357 17
2019-10-11 10:04:41 GMT 53.632008 10.002506 0 33 15
2019-10-11 10:04:34 GMT 53.631554 10.002567 0 354 12
2019-10-11 10:04:24 GMT 53.630997 10.002640 0 0 12
2019-10-11 10:04:17 GMT 53.630623 10.002567 0 30 15
2019-10-11 10:04:06 GMT 53.630001 10.001894 0 30 14

Making use of Plane Finder data

You are free to use the raw flight data, aircraft information and images provided in this report for your own purposes provided the data is correctly attributed to Plane Finder. We ask that you please credit Plane Finder and link to planefinder.net in close proximity to the content.

Optionally one of the following logos (no smaller then 150x24px) can be used and must link to planefinder.net

Embedding the Plane Finder map

You are welcome to embed the Plane Finder playback map on your website to offer visitors a more interactive experience. We suggest using the following HTML code:

<iframe src="//planefinder.net/data/report/EW7428-D-AEWF-7700-squawk-2019-10-11/map" width="800" height="600" seamless="seamless"></iframe>

Where our data comes from

Plane Finder has a global network of data feeds and antenna radars that receive data broadcast directly from aircraft. The primary technologies used are ADS-B and MLAT. We also show feeds from the FAA and a FLARM glider feed.

Click here to find out more about the Plane Finder network.

How we collect our data